<?xml version="1.0" encoding="UTF-8" standalone="no" ?>
<gpx xmlns="http://www.topografix.com/GPX/1/1" xmlns:xsi="http://www.w3.org/2001/XMLSchema-instance" xsi:schemaLocation="http://www.topografix.com/GPX/1/1 http://www.topografix.com/GPX/1/1/gpx.xsd" version="1.1" creator="VisuGPX - https://www.visugpx.com">
  <metadata>
    <name>L'escarpineau</name>
  </metadata>
  <trk>
    <name><![CDATA[L'escarpineau_1]]></name>
    <trkseg>
      <trkpt lat="47.07089" lon="6.75646">
        <ele>1079.53</ele>
        <time>2020-11-27T12:05:00.000Z</time>
      </trkpt>
      <trkpt lat="47.07086" lon="6.75644">
        <ele>1079.42</ele>
        <time>2020-11-27T12:05:00.817Z</time>
      </trkpt>
      <trkpt lat="47.07079" lon="6.75637">
        <ele>1079.06</ele>
        <time>2020-11-27T12:05:02.738Z</time>
      </trkpt>
      <trkpt lat="47.07068" lon="6.75629">
        <ele>1078.49</ele>
        <time>2020-11-27T12:05:05.425Z</time>
      </trkpt>
      <trkpt lat="47.07064" lon="6.75624">
        <ele>1078.2</ele>
        <time>2020-11-27T12:05:06.491Z</time>
      </trkpt>
      <trkpt lat="47.07057" lon="6.75616">
        <ele>1078</ele>
        <time>2020-11-27T12:05:08.961Z</time>
      </trkpt>
      <trkpt lat="47.07057" lon="6.75611">
        <ele>1078.09</ele>
        <time>2020-11-27T12:05:12.719Z</time>
      </trkpt>
      <trkpt lat="47.07053" lon="6.75601">
        <ele>1078.17</ele>
        <time>2020-11-27T12:05:19.999Z</time>
      </trkpt>
      <trkpt lat="47.07044" lon="6.75583">
        <ele>1078.39</ele>
        <time>2020-11-27T12:05:34.660Z</time>
      </trkpt>
      <trkpt lat="47.07041" lon="6.75575">
        <ele>1078.52</ele>
        <time>2020-11-27T12:05:41.093Z</time>
      </trkpt>
      <trkpt lat="47.07027" lon="6.7555">
        <ele>1078.77</ele>
        <time>2020-11-27T12:06:01.664Z</time>
      </trkpt>
      <trkpt lat="47.0702" lon="6.75539">
        <ele>1078.63</ele>
        <time>2020-11-27T12:06:04.841Z</time>
      </trkpt>
      <trkpt lat="47.07009" lon="6.75522">
        <ele>1078.72</ele>
        <time>2020-11-27T12:06:18.923Z</time>
      </trkpt>
      <trkpt lat="47.07005" lon="6.75516">
        <ele>1078.73</ele>
        <time>2020-11-27T12:06:23.783Z</time>
      </trkpt>
      <trkpt lat="47.07" lon="6.75511">
        <ele>1078.95</ele>
        <time>2020-11-27T12:06:31.369Z</time>
      </trkpt>
      <trkpt lat="47.06994" lon="6.75507">
        <ele>1078.95</ele>
        <time>2020-11-27T12:06:36.880Z</time>
      </trkpt>
      <trkpt lat="47.06977" lon="6.75495">
        <ele>1079.93</ele>
        <time>2020-11-27T12:07:04.819Z</time>
      </trkpt>
      <trkpt lat="47.0697" lon="6.75488">
        <ele>1080.31</ele>
        <time>2020-11-27T12:07:16.800Z</time>
      </trkpt>
      <trkpt lat="47.06961" lon="6.75471">
        <ele>1080.61</ele>
        <time>2020-11-27T12:07:31.892Z</time>
      </trkpt>
      <trkpt lat="47.06968" lon="6.75459">
        <ele>1081.57</ele>
        <time>2020-11-27T12:07:53.068Z</time>
      </trkpt>
      <trkpt lat="47.06972" lon="6.75451">
        <ele>1082.06</ele>
        <time>2020-11-27T12:08:04.660Z</time>
      </trkpt>
      <trkpt lat="47.06975" lon="6.75444">
        <ele>1083</ele>
        <time>2020-11-27T12:08:22.829Z</time>
      </trkpt>
      <trkpt lat="47.06976" lon="6.75436">
        <ele>1083.53</ele>
        <time>2020-11-27T12:08:34.389Z</time>
      </trkpt>
      <trkpt lat="47.06977" lon="6.75424">
        <ele>1084</ele>
        <time>2020-11-27T12:08:47.015Z</time>
      </trkpt>
      <trkpt lat="47.06978" lon="6.75407">
        <ele>1084.82</ele>
        <time>2020-11-27T12:09:06.654Z</time>
      </trkpt>
      <trkpt lat="47.06979" lon="6.75385">
        <ele>1086.57</ele>
        <time>2020-11-27T12:09:45.583Z</time>
      </trkpt>
      <trkpt lat="47.06979" lon="6.75381">
        <ele>1087.33</ele>
        <time>2020-11-27T12:09:54.370Z</time>
      </trkpt>
      <trkpt lat="47.06979" lon="6.75381">
        <ele>1087.33</ele>
        <time>2020-11-27T12:09:54.370Z</time>
      </trkpt>
      <trkpt lat="47.06979" lon="6.75371">
        <ele>1088.09</ele>
        <time>2020-11-27T12:10:11.067Z</time>
      </trkpt>
      <trkpt lat="47.06981" lon="6.75358">
        <ele>1089.35</ele>
        <time>2020-11-27T12:10:40.346Z</time>
      </trkpt>
      <trkpt lat="47.06984" lon="6.75346">
        <ele>1090.35</ele>
        <time>2020-11-27T12:11:02.485Z</time>
      </trkpt>
      <trkpt lat="47.06987" lon="6.75336">
        <ele>1091.54</ele>
        <time>2020-11-27T12:11:26.491Z</time>
      </trkpt>
      <trkpt lat="47.06992" lon="6.75328">
        <ele>1092.56</ele>
        <time>2020-11-27T12:11:50.345Z</time>
      </trkpt>
      <trkpt lat="47.06998" lon="6.75321">
        <ele>1093.63</ele>
        <time>2020-11-27T12:12:15.064Z</time>
      </trkpt>
      <trkpt lat="47.07005" lon="6.75316">
        <ele>1094.37</ele>
        <time>2020-11-27T12:12:31.216Z</time>
      </trkpt>
      <trkpt lat="47.07012" lon="6.75314">
        <ele>1095.12</ele>
        <time>2020-11-27T12:12:47.547Z</time>
      </trkpt>
      <trkpt lat="47.07018" lon="6.75314">
        <ele>1095.57</ele>
        <time>2020-11-27T12:12:58.039Z</time>
      </trkpt>
      <trkpt lat="47.07024" lon="6.75316">
        <ele>1096.28</ele>
        <time>2020-11-27T12:13:13.781Z</time>
      </trkpt>
      <trkpt lat="47.0703" lon="6.7532">
        <ele>1096.77</ele>
        <time>2020-11-27T12:13:25.246Z</time>
      </trkpt>
      <trkpt lat="47.07036" lon="6.75325">
        <ele>1097.23</ele>
        <time>2020-11-27T12:13:36.571Z</time>
      </trkpt>
      <trkpt lat="47.07048" lon="6.75336">
        <ele>1098.11</ele>
        <time>2020-11-27T12:13:59.055Z</time>
      </trkpt>
      <trkpt lat="47.07107" lon="6.75396">
        <ele>1102.94</ele>
        <time>2020-11-27T12:15:57.415Z</time>
      </trkpt>
      <trkpt lat="47.07112" lon="6.75401">
        <ele>1103.17</ele>
        <time>2020-11-27T12:16:05.177Z</time>
      </trkpt>
      <trkpt lat="47.07117" lon="6.75404">
        <ele>1103.45</ele>
        <time>2020-11-27T12:16:13.171Z</time>
      </trkpt>
      <trkpt lat="47.07122" lon="6.75404">
        <ele>1103.67</ele>
        <time>2020-11-27T12:16:20.176Z</time>
      </trkpt>
      <trkpt lat="47.07127" lon="6.75402">
        <ele>1103.78</ele>
        <time>2020-11-27T12:16:25.555Z</time>
      </trkpt>
      <trkpt lat="47.07139" lon="6.75389">
        <ele>1102.95</ele>
        <time>2020-11-27T12:16:28.570Z</time>
      </trkpt>
      <trkpt lat="47.07156" lon="6.75374">
        <ele>1102.81</ele>
        <time>2020-11-27T12:16:43.538Z</time>
      </trkpt>
      <trkpt lat="47.07182" lon="6.75349">
        <ele>1102.9</ele>
        <time>2020-11-27T12:17:10.236Z</time>
      </trkpt>
      <trkpt lat="47.07209" lon="6.7532">
        <ele>1103.69</ele>
        <time>2020-11-27T12:17:45.933Z</time>
      </trkpt>
      <trkpt lat="47.07221" lon="6.75307">
        <ele>1104.65</ele>
        <time>2020-11-27T12:18:10.006Z</time>
      </trkpt>
      <trkpt lat="47.07224" lon="6.75298">
        <ele>1105.4</ele>
        <time>2020-11-27T12:18:26.431Z</time>
      </trkpt>
      <trkpt lat="47.07226" lon="6.75289">
        <ele>1106.14</ele>
        <time>2020-11-27T12:18:42.810Z</time>
      </trkpt>
      <trkpt lat="47.07228" lon="6.75279">
        <ele>1106.93</ele>
        <time>2020-11-27T12:19:00.155Z</time>
      </trkpt>
      <trkpt lat="47.07229" lon="6.75263">
        <ele>1108.06</ele>
        <time>2020-11-27T12:19:24.734Z</time>
      </trkpt>
      <trkpt lat="47.07229" lon="6.7525">
        <ele>1109.04</ele>
        <time>2020-11-27T12:19:46.226Z</time>
      </trkpt>
      <trkpt lat="47.07228" lon="6.75247">
        <ele>1109.35</ele>
        <time>2020-11-27T12:19:53.564Z</time>
      </trkpt>
      <trkpt lat="47.07228" lon="6.75246">
        <ele>1109.35</ele>
        <time>2020-11-27T12:19:54.133Z</time>
      </trkpt>
      <trkpt lat="47.07226" lon="6.75237">
        <ele>1109.65</ele>
        <time>2020-11-27T12:20:03.352Z</time>
      </trkpt>
      <trkpt lat="47.07221" lon="6.75217">
        <ele>1110.44</ele>
        <time>2020-11-27T12:20:25.205Z</time>
      </trkpt>
      <trkpt lat="47.07201" lon="6.75162">
        <ele>1111.79</ele>
        <time>2020-11-27T12:21:15.305Z</time>
      </trkpt>
      <trkpt lat="47.07195" lon="6.75146">
        <ele>1112.1</ele>
        <time>2020-11-27T12:21:28.785Z</time>
      </trkpt>
      <trkpt lat="47.07192" lon="6.75135">
        <ele>1112.64</ele>
        <time>2020-11-27T12:21:42.056Z</time>
      </trkpt>
      <trkpt lat="47.0719" lon="6.7512">
        <ele>1113.44</ele>
        <time>2020-11-27T12:22:00.527Z</time>
      </trkpt>
      <trkpt lat="47.07189" lon="6.751">
        <ele>1114.24</ele>
        <time>2020-11-27T12:22:21.687Z</time>
      </trkpt>
      <trkpt lat="47.07181" lon="6.75057">
        <ele>1115.32</ele>
        <time>2020-11-27T12:22:59.347Z</time>
      </trkpt>
      <trkpt lat="47.07177" lon="6.7503">
        <ele>1116.48</ele>
        <time>2020-11-27T12:23:29.137Z</time>
      </trkpt>
      <trkpt lat="47.07175" lon="6.75003">
        <ele>1118.33</ele>
        <time>2020-11-27T12:24:09.368Z</time>
      </trkpt>
      <trkpt lat="47.07175" lon="6.74995">
        <ele>1119.11</ele>
        <time>2020-11-27T12:24:26.943Z</time>
      </trkpt>
      <trkpt lat="47.07177" lon="6.74989">
        <ele>1119.71</ele>
        <time>2020-11-27T12:24:41.295Z</time>
      </trkpt>
      <trkpt lat="47.07185" lon="6.74982">
        <ele>1120.26</ele>
        <time>2020-11-27T12:24:55.772Z</time>
      </trkpt>
      <trkpt lat="47.07188" lon="6.7498">
        <ele>1120.5</ele>
        <time>2020-11-27T12:25:01.437Z</time>
      </trkpt>
      <trkpt lat="47.07198" lon="6.74973">
        <ele>1120.62</ele>
        <time>2020-11-27T12:25:11.722Z</time>
      </trkpt>
      <trkpt lat="47.07203" lon="6.74968">
        <ele>1120.69</ele>
        <time>2020-11-27T12:25:17.381Z</time>
      </trkpt>
      <trkpt lat="47.07209" lon="6.74958">
        <ele>1121.03</ele>
        <time>2020-11-27T12:25:28.936Z</time>
      </trkpt>
      <trkpt lat="47.07213" lon="6.7495">
        <ele>1121.53</ele>
        <time>2020-11-27T12:25:40.661Z</time>
      </trkpt>
      <trkpt lat="47.07219" lon="6.74937">
        <ele>1122.31</ele>
        <time>2020-11-27T12:25:59.065Z</time>
      </trkpt>
      <trkpt lat="47.07226" lon="6.74924">
        <ele>1122.91</ele>
        <time>2020-11-27T12:26:15.918Z</time>
      </trkpt>
      <trkpt lat="47.0724" lon="6.74905">
        <ele>1125.9</ele>
        <time>2020-11-27T12:27:17.411Z</time>
      </trkpt>
      <trkpt lat="47.07249" lon="6.74889">
        <ele>1127.1</ele>
        <time>2020-11-27T12:27:44.205Z</time>
      </trkpt>
      <trkpt lat="47.07252" lon="6.74878">
        <ele>1128.3</ele>
        <time>2020-11-27T12:28:10.236Z</time>
      </trkpt>
      <trkpt lat="47.07253" lon="6.74868">
        <ele>1128.9</ele>
        <time>2020-11-27T12:28:23.541Z</time>
      </trkpt>
      <trkpt lat="47.07251" lon="6.74844">
        <ele>1130.72</ele>
        <time>2020-11-27T12:29:03.443Z</time>
      </trkpt>
      <trkpt lat="47.07244" lon="6.74793">
        <ele>1134.1</ele>
        <time>2020-11-27T12:30:17.186Z</time>
      </trkpt>
      <trkpt lat="47.0724" lon="6.74769">
        <ele>1135.76</ele>
        <time>2020-11-27T12:30:53.305Z</time>
      </trkpt>
      <trkpt lat="47.07221" lon="6.74695">
        <ele>1138.67</ele>
        <time>2020-11-27T12:32:14.198Z</time>
      </trkpt>
      <trkpt lat="47.07217" lon="6.7467">
        <ele>1139.6</ele>
        <time>2020-11-27T12:32:40.316Z</time>
      </trkpt>
      <trkpt lat="47.07215" lon="6.74645">
        <ele>1140.23</ele>
        <time>2020-11-27T12:33:01.927Z</time>
      </trkpt>
      <trkpt lat="47.07215" lon="6.74627">
        <ele>1140.88</ele>
        <time>2020-11-27T12:33:20.215Z</time>
      </trkpt>
      <trkpt lat="47.07216" lon="6.74612">
        <ele>1141.38</ele>
        <time>2020-11-27T12:33:35.098Z</time>
      </trkpt>
      <trkpt lat="47.07216" lon="6.74601">
        <ele>1141.65</ele>
        <time>2020-11-27T12:33:44.451Z</time>
      </trkpt>
      <trkpt lat="47.07215" lon="6.74587">
        <ele>1142.31</ele>
        <time>2020-11-27T12:34:00.444Z</time>
      </trkpt>
      <trkpt lat="47.07212" lon="6.74558">
        <ele>1143.95</ele>
        <time>2020-11-27T12:34:37.434Z</time>
      </trkpt>
      <trkpt lat="47.07205" lon="6.7448">
        <ele>1151.34</ele>
        <time>2020-11-27T12:37:30.269Z</time>
      </trkpt>
      <trkpt lat="47.07201" lon="6.74429">
        <ele>1153.92</ele>
        <time>2020-11-27T12:38:30.835Z</time>
      </trkpt>
      <trkpt lat="47.07201" lon="6.74414">
        <ele>1154.8</ele>
        <time>2020-11-27T12:38:50.408Z</time>
      </trkpt>
      <trkpt lat="47.07204" lon="6.744">
        <ele>1155.47</ele>
        <time>2020-11-27T12:39:06.860Z</time>
      </trkpt>
      <trkpt lat="47.07207" lon="6.74389">
        <ele>1156.06</ele>
        <time>2020-11-27T12:39:20.766Z</time>
      </trkpt>
      <trkpt lat="47.07212" lon="6.74382">
        <ele>1156.69</ele>
        <time>2020-11-27T12:39:34.602Z</time>
      </trkpt>
      <trkpt lat="47.07218" lon="6.74378">
        <ele>1157.04</ele>
        <time>2020-11-27T12:39:44.438Z</time>
      </trkpt>
      <trkpt lat="47.07218" lon="6.74378">
        <ele>1157.04</ele>
        <time>2020-11-27T12:39:44.438Z</time>
      </trkpt>
      <trkpt lat="47.07218" lon="6.74378">
        <ele>1157.39</ele>
        <time>2020-11-27T12:39:44.438Z</time>
      </trkpt>
      <trkpt lat="47.07226" lon="6.74377">
        <ele>1158.22</ele>
        <time>2020-11-27T12:40:02.493Z</time>
      </trkpt>
      <trkpt lat="47.07234" lon="6.74378">
        <ele>1158.98</ele>
        <time>2020-11-27T12:40:19.089Z</time>
      </trkpt>
      <trkpt lat="47.07243" lon="6.7438">
        <ele>1159.8</ele>
        <time>2020-11-27T12:40:37.140Z</time>
      </trkpt>
      <trkpt lat="47.0725" lon="6.74382">
        <ele>1160.39</ele>
        <time>2020-11-27T12:40:50.415Z</time>
      </trkpt>
      <trkpt lat="47.07275" lon="6.74394">
        <ele>1161.81</ele>
        <time>2020-11-27T12:41:29.906Z</time>
      </trkpt>
      <trkpt lat="47.07285" lon="6.74397">
        <ele>1162.03</ele>
        <time>2020-11-27T12:41:40.541Z</time>
      </trkpt>
      <trkpt lat="47.07305" lon="6.74401">
        <ele>1162</ele>
        <time>2020-11-27T12:41:57.045Z</time>
      </trkpt>
      <trkpt lat="47.07322" lon="6.74403">
        <ele>1162.03</ele>
        <time>2020-11-27T12:42:11.540Z</time>
      </trkpt>
      <trkpt lat="47.07337" lon="6.74402">
        <ele>1161.84</ele>
        <time>2020-11-27T12:42:16.252Z</time>
      </trkpt>
      <trkpt lat="47.07337" lon="6.74402">
        <ele>1161.84</ele>
        <time>2020-11-27T12:42:16.252Z</time>
      </trkpt>
      <trkpt lat="47.07337" lon="6.74402">
        <ele>1161.66</ele>
        <time>2020-11-27T12:42:16.252Z</time>
      </trkpt>
      <trkpt lat="47.07349" lon="6.74401">
        <ele>1161.48</ele>
        <time>2020-11-27T12:42:19.914Z</time>
      </trkpt>
      <trkpt lat="47.07361" lon="6.74398">
        <ele>1161.23</ele>
        <time>2020-11-27T12:42:23.383Z</time>
      </trkpt>
      <trkpt lat="47.0737" lon="6.74393">
        <ele>1160.73</ele>
        <time>2020-11-27T12:42:25.390Z</time>
      </trkpt>
      <trkpt lat="47.07378" lon="6.74387">
        <ele>1160.2</ele>
        <time>2020-11-27T12:42:27.157Z</time>
      </trkpt>
      <trkpt lat="47.07387" lon="6.74377">
        <ele>1159.78</ele>
        <time>2020-11-27T12:42:29.850Z</time>
      </trkpt>
      <trkpt lat="47.07392" lon="6.74368">
        <ele>1159.5</ele>
        <time>2020-11-27T12:42:31.771Z</time>
      </trkpt>
      <trkpt lat="47.07396" lon="6.74357">
        <ele>1159.3</ele>
        <time>2020-11-27T12:42:34.109Z</time>
      </trkpt>
      <trkpt lat="47.07397" lon="6.74346">
        <ele>1159.28</ele>
        <time>2020-11-27T12:42:40.183Z</time>
      </trkpt>
      <trkpt lat="47.07396" lon="6.74337">
        <ele>1159.54</ele>
        <time>2020-11-27T12:42:48.607Z</time>
      </trkpt>
      <trkpt lat="47.07391" lon="6.74316">
        <ele>1160.27</ele>
        <time>2020-11-27T12:43:10.501Z</time>
      </trkpt>
      <trkpt lat="47.07389" lon="6.74304">
        <ele>1160.6</ele>
        <time>2020-11-27T12:43:21.482Z</time>
      </trkpt>
      <trkpt lat="47.07389" lon="6.74287">
        <ele>1160.74</ele>
        <time>2020-11-27T12:43:32.370Z</time>
      </trkpt>
      <trkpt lat="47.0739" lon="6.74254">
        <ele>1161.53</ele>
        <time>2020-11-27T12:44:00.103Z</time>
      </trkpt>
      <trkpt lat="47.0739" lon="6.74243">
        <ele>1161.09</ele>
        <time>2020-11-27T12:44:01.581Z</time>
      </trkpt>
      <trkpt lat="47.07388" lon="6.74229">
        <ele>1160.57</ele>
        <time>2020-11-27T12:44:03.588Z</time>
      </trkpt>
      <trkpt lat="47.07384" lon="6.74207">
        <ele>1159.17</ele>
        <time>2020-11-27T12:44:06.725Z</time>
      </trkpt>
      <trkpt lat="47.07384" lon="6.74206">
        <ele>1159.17</ele>
        <time>2020-11-27T12:44:07.295Z</time>
      </trkpt>
      <trkpt lat="47.07376" lon="6.74161">
        <ele>1157.78</ele>
        <time>2020-11-27T12:44:14.390Z</time>
      </trkpt>
      <trkpt lat="47.07374" lon="6.7415">
        <ele>1157.4</ele>
        <time>2020-11-27T12:44:16.049Z</time>
      </trkpt>
      <trkpt lat="47.07374" lon="6.74139">
        <ele>1156.97</ele>
        <time>2020-11-27T12:44:17.543Z</time>
      </trkpt>
      <trkpt lat="47.07375" lon="6.74129">
        <ele>1156.67</ele>
        <time>2020-11-27T12:44:19.089Z</time>
      </trkpt>
      <trkpt lat="47.07376" lon="6.7412">
        <ele>1156.36</ele>
        <time>2020-11-27T12:44:20.407Z</time>
      </trkpt>
      <trkpt lat="47.07379" lon="6.74104">
        <ele>1156.36</ele>
        <time>2020-11-27T12:44:30.003Z</time>
      </trkpt>
      <trkpt lat="47.0739" lon="6.74045">
        <ele>1151.84</ele>
        <time>2020-11-27T12:44:38.396Z</time>
      </trkpt>
      <trkpt lat="47.07393" lon="6.74033">
        <ele>1151.44</ele>
        <time>2020-11-27T12:44:40.310Z</time>
      </trkpt>
      <trkpt lat="47.07397" lon="6.74024">
        <ele>1151.17</ele>
        <time>2020-11-27T12:44:42.062Z</time>
      </trkpt>
      <trkpt lat="47.07402" lon="6.74018">
        <ele>1150.7</ele>
        <time>2020-11-27T12:44:43.368Z</time>
      </trkpt>
      <trkpt lat="47.07407" lon="6.74014">
        <ele>1149.96</ele>
        <time>2020-11-27T12:44:44.520Z</time>
      </trkpt>
      <trkpt lat="47.07435" lon="6.73997">
        <ele>1145.67</ele>
        <time>2020-11-27T12:44:50.649Z</time>
      </trkpt>
      <trkpt lat="47.0745" lon="6.73989">
        <ele>1144.77</ele>
        <time>2020-11-27T12:44:53.856Z</time>
      </trkpt>
      <trkpt lat="47.07457" lon="6.73984">
        <ele>1144.48</ele>
        <time>2020-11-27T12:44:55.713Z</time>
      </trkpt>
      <trkpt lat="47.07463" lon="6.73978">
        <ele>1144.41</ele>
        <time>2020-11-27T12:44:58.082Z</time>
      </trkpt>
      <trkpt lat="47.07468" lon="6.73972">
        <ele>1144.48</ele>
        <time>2020-11-27T12:45:04.077Z</time>
      </trkpt>
      <trkpt lat="47.07473" lon="6.73962">
        <ele>1144.86</ele>
        <time>2020-11-27T12:45:16.038Z</time>
      </trkpt>
      <trkpt lat="47.07476" lon="6.73955">
        <ele>1145.16</ele>
        <time>2020-11-27T12:45:24.454Z</time>
      </trkpt>
      <trkpt lat="47.07479" lon="6.73945">
        <ele>1145.91</ele>
        <time>2020-11-27T12:45:40.762Z</time>
      </trkpt>
      <trkpt lat="47.0748" lon="6.73938">
        <ele>1146.51</ele>
        <time>2020-11-27T12:45:54.445Z</time>
      </trkpt>
      <trkpt lat="47.07479" lon="6.7393">
        <ele>1147.23</ele>
        <time>2020-11-27T12:46:11.463Z</time>
      </trkpt>
      <trkpt lat="47.07478" lon="6.73917">
        <ele>1148.52</ele>
        <time>2020-11-27T12:46:40.202Z</time>
      </trkpt>
      <trkpt lat="47.07478" lon="6.7391">
        <ele>1149.06</ele>
        <time>2020-11-27T12:46:52.109Z</time>
      </trkpt>
      <trkpt lat="47.0748" lon="6.73903">
        <ele>1149.59</ele>
        <time>2020-11-27T12:47:03.634Z</time>
      </trkpt>
      <trkpt lat="47.07484" lon="6.73897">
        <ele>1150.01</ele>
        <time>2020-11-27T12:47:13.513Z</time>
      </trkpt>
      <trkpt lat="47.07487" lon="6.73893">
        <ele>1150.75</ele>
        <time>2020-11-27T12:47:26.584Z</time>
      </trkpt>
      <trkpt lat="47.07492" lon="6.73896">
        <ele>1150.8</ele>
        <time>2020-11-27T12:47:31.520Z</time>
      </trkpt>
      <trkpt lat="47.07497" lon="6.73902">
        <ele>1151.1</ele>
        <time>2020-11-27T12:47:40.748Z</time>
      </trkpt>
      <trkpt lat="47.07507" lon="6.73923">
        <ele>1151.55</ele>
        <time>2020-11-27T12:47:59.854Z</time>
      </trkpt>
      <trkpt lat="47.07511" lon="6.73931">
        <ele>1151.47</ele>
        <time>2020-11-27T12:48:01.997Z</time>
      </trkpt>
      <trkpt lat="47.07516" lon="6.73941">
        <ele>1151.38</ele>
        <time>2020-11-27T12:48:04.718Z</time>
      </trkpt>
      <trkpt lat="47.07519" lon="6.73947">
        <ele>1151.66</ele>
        <time>2020-11-27T12:48:12.394Z</time>
      </trkpt>
      <trkpt lat="47.07519" lon="6.73946">
        <ele>1151.66</ele>
        <time>2020-11-27T12:48:12.964Z</time>
      </trkpt>
      <trkpt lat="47.07526" lon="6.73961">
        <ele>1151.94</ele>
        <time>2020-11-27T12:48:26.024Z</time>
      </trkpt>
      <trkpt lat="47.07532" lon="6.73973">
        <ele>1152.77</ele>
        <time>2020-11-27T12:48:44.761Z</time>
      </trkpt>
      <trkpt lat="47.07538" lon="6.73981">
        <ele>1153.62</ele>
        <time>2020-11-27T12:49:03.266Z</time>
      </trkpt>
      <trkpt lat="47.07547" lon="6.73988">
        <ele>1154.15</ele>
        <time>2020-11-27T12:49:18.360Z</time>
      </trkpt>
      <trkpt lat="47.07555" lon="6.73993">
        <ele>1154.45</ele>
        <time>2020-11-27T12:49:28.991Z</time>
      </trkpt>
      <trkpt lat="47.07563" lon="6.73995">
        <ele>1154.84</ele>
        <time>2020-11-27T12:49:40.708Z</time>
      </trkpt>
      <trkpt lat="47.07585" lon="6.73996">
        <ele>1156.26</ele>
        <time>2020-11-27T12:50:16.275Z</time>
      </trkpt>
      <trkpt lat="47.07627" lon="6.74">
        <ele>1159.57</ele>
        <time>2020-11-27T12:51:32.036Z</time>
      </trkpt>
      <trkpt lat="47.07635" lon="6.74">
        <ele>1159.92</ele>
        <time>2020-11-27T12:51:43.200Z</time>
      </trkpt>
      <trkpt lat="47.07643" lon="6.73999">
        <ele>1160.46</ele>
        <time>2020-11-27T12:51:56.437Z</time>
      </trkpt>
      <trkpt lat="47.07647" lon="6.74">
        <ele>1160.75</ele>
        <time>2020-11-27T12:52:03.341Z</time>
      </trkpt>
      <trkpt lat="47.07651" lon="6.74002">
        <ele>1160.94</ele>
        <time>2020-11-27T12:52:09.323Z</time>
      </trkpt>
      <trkpt lat="47.07661" lon="6.74013">
        <ele>1161.78</ele>
        <time>2020-11-27T12:52:29.918Z</time>
      </trkpt>
      <trkpt lat="47.0767" lon="6.74024">
        <ele>1162.01</ele>
        <time>2020-11-27T12:52:41.858Z</time>
      </trkpt>
      <trkpt lat="47.07684" lon="6.7404">
        <ele>1161.53</ele>
        <time>2020-11-27T12:52:46.557Z</time>
      </trkpt>
      <trkpt lat="47.07687" lon="6.74044">
        <ele>1161.46</ele>
        <time>2020-11-27T12:52:47.757Z</time>
      </trkpt>
      <trkpt lat="47.07697" lon="6.74057">
        <ele>1161.34</ele>
        <time>2020-11-27T12:52:52.155Z</time>
      </trkpt>
      <trkpt lat="47.07707" lon="6.74067">
        <ele>1161.41</ele>
        <time>2020-11-27T12:53:02.839Z</time>
      </trkpt>
      <trkpt lat="47.07724" lon="6.74078">
        <ele>1162.4</ele>
        <time>2020-11-27T12:53:30.602Z</time>
      </trkpt>
      <trkpt lat="47.07749" lon="6.74097">
        <ele>1164.44</ele>
        <time>2020-11-27T12:54:18.869Z</time>
      </trkpt>
      <trkpt lat="47.07767" lon="6.7411">
        <ele>1165.87</ele>
        <time>2020-11-27T12:54:52.955Z</time>
      </trkpt>
      <trkpt lat="47.0779" lon="6.74121">
        <ele>1167.56</ele>
        <time>2020-11-27T12:55:33.618Z</time>
      </trkpt>
      <trkpt lat="47.07804" lon="6.74127">
        <ele>1168.43</ele>
        <time>2020-11-27T12:55:56.384Z</time>
      </trkpt>
      <trkpt lat="47.07824" lon="6.74134">
        <ele>1169.51</ele>
        <time>2020-11-27T12:56:26.954Z</time>
      </trkpt>
      <trkpt lat="47.07839" lon="6.74142">
        <ele>1169.86</ele>
        <time>2020-11-27T12:56:43.654Z</time>
      </trkpt>
      <trkpt lat="47.07841" lon="6.74144">
        <ele>1169.9</ele>
        <time>2020-11-27T12:56:46.039Z</time>
      </trkpt>
      <trkpt lat="47.07841" lon="6.74143">
        <ele>1169.9</ele>
        <time>2020-11-27T12:56:46.608Z</time>
      </trkpt>
      <trkpt lat="47.07844" lon="6.74146">
        <ele>1169.93</ele>
        <time>2020-11-27T12:56:49.892Z</time>
      </trkpt>
      <trkpt lat="47.07849" lon="6.74152">
        <ele>1170.09</ele>
        <time>2020-11-27T12:56:56.877Z</time>
      </trkpt>
      <trkpt lat="47.07859" lon="6.7417">
        <ele>1171.33</ele>
        <time>2020-11-27T12:57:25.294Z</time>
      </trkpt>
      <trkpt lat="47.07864" lon="6.74177">
        <ele>1171.69</ele>
        <time>2020-11-27T12:57:35.537Z</time>
      </trkpt>
      <trkpt lat="47.07874" lon="6.74186">
        <ele>1172.2</ele>
        <time>2020-11-27T12:57:51.838Z</time>
      </trkpt>
      <trkpt lat="47.07884" lon="6.74194">
        <ele>1172.78</ele>
        <time>2020-11-27T12:58:08.592Z</time>
      </trkpt>
      <trkpt lat="47.07891" lon="6.74199">
        <ele>1173.14</ele>
        <time>2020-11-27T12:58:19.701Z</time>
      </trkpt>
      <trkpt lat="47.07898" lon="6.74202">
        <ele>1173.44</ele>
        <time>2020-11-27T12:58:29.486Z</time>
      </trkpt>
      <trkpt lat="47.07909" lon="6.74205">
        <ele>1173.82</ele>
        <time>2020-11-27T12:58:43.068Z</time>
      </trkpt>
      <trkpt lat="47.07913" lon="6.74207">
        <ele>1173.93</ele>
        <time>2020-11-27T12:58:47.708Z</time>
      </trkpt>
      <trkpt lat="47.07919" lon="6.74211">
        <ele>1174.06</ele>
        <time>2020-11-27T12:58:54.433Z</time>
      </trkpt>
      <trkpt lat="47.0793" lon="6.74219">
        <ele>1174.42</ele>
        <time>2020-11-27T12:59:08.469Z</time>
      </trkpt>
      <trkpt lat="47.07938" lon="6.74227">
        <ele>1174.63</ele>
        <time>2020-11-27T12:59:18.570Z</time>
      </trkpt>
      <trkpt lat="47.0796" lon="6.74251">
        <ele>1175.47</ele>
        <time>2020-11-27T12:59:50.435Z</time>
      </trkpt>
      <trkpt lat="47.07985" lon="6.74279">
        <ele>1176.13</ele>
        <time>2020-11-27T13:00:22.987Z</time>
      </trkpt>
      <trkpt lat="47.07998" lon="6.74291">
        <ele>1176.33</ele>
        <time>2020-11-27T13:00:37.567Z</time>
      </trkpt>
      <trkpt lat="47.08006" lon="6.74297">
        <ele>1175.89</ele>
        <time>2020-11-27T13:00:39.489Z</time>
      </trkpt>
      <trkpt lat="47.08018" lon="6.74305">
        <ele>1175.24</ele>
        <time>2020-11-27T13:00:42.301Z</time>
      </trkpt>
      <trkpt lat="47.08039" lon="6.74313">
        <ele>1176.1</ele>
        <time>2020-11-27T13:01:10.787Z</time>
      </trkpt>
      <trkpt lat="47.08045" lon="6.74317">
        <ele>1176.68</ele>
        <time>2020-11-27T13:01:23.618Z</time>
      </trkpt>
      <trkpt lat="47.08051" lon="6.74322">
        <ele>1176.86</ele>
        <time>2020-11-27T13:01:31.199Z</time>
      </trkpt>
      <trkpt lat="47.08056" lon="6.74328">
        <ele>1177.19</ele>
        <time>2020-11-27T13:01:40.710Z</time>
      </trkpt>
      <trkpt lat="47.08072" lon="6.74352">
        <ele>1178.49</ele>
        <time>2020-11-27T13:02:15.722Z</time>
      </trkpt>
      <trkpt lat="47.08081" lon="6.74368">
        <ele>1178.97</ele>
        <time>2020-11-27T13:02:32.877Z</time>
      </trkpt>
      <trkpt lat="47.08087" lon="6.74377">
        <ele>1179.2</ele>
        <time>2020-11-27T13:02:42.385Z</time>
      </trkpt>
      <trkpt lat="47.08095" lon="6.74383">
        <ele>1179.42</ele>
        <time>2020-11-27T13:02:52.070Z</time>
      </trkpt>
      <trkpt lat="47.08106" lon="6.7439">
        <ele>1179.57</ele>
        <time>2020-11-27T13:03:03.393Z</time>
      </trkpt>
      <trkpt lat="47.08132" lon="6.74403">
        <ele>1178.65</ele>
        <time>2020-11-27T13:03:10.192Z</time>
      </trkpt>
      <trkpt lat="47.08137" lon="6.74404">
        <ele>1178.49</ele>
        <time>2020-11-27T13:03:11.465Z</time>
      </trkpt>
      <trkpt lat="47.08141" lon="6.74403">
        <ele>1178.5</ele>
        <time>2020-11-27T13:03:14.936Z</time>
      </trkpt>
      <trkpt lat="47.08147" lon="6.744">
        <ele>1178.32</ele>
        <time>2020-11-27T13:03:16.591Z</time>
      </trkpt>
      <trkpt lat="47.08156" lon="6.74392">
        <ele>1178.6</ele>
        <time>2020-11-27T13:03:28.224Z</time>
      </trkpt>
      <trkpt lat="47.0817" lon="6.74377">
        <ele>1178.67</ele>
        <time>2020-11-27T13:03:43.273Z</time>
      </trkpt>
      <trkpt lat="47.0817" lon="6.74377">
        <ele>1178.67</ele>
        <time>2020-11-27T13:03:43.273Z</time>
      </trkpt>
      <trkpt lat="47.08173" lon="6.74375">
        <ele>1178.74</ele>
        <time>2020-11-27T13:03:46.694Z</time>
      </trkpt>
      <trkpt lat="47.08184" lon="6.74364">
        <ele>1178.85</ele>
        <time>2020-11-27T13:03:58.735Z</time>
      </trkpt>
      <trkpt lat="47.08194" lon="6.74355">
        <ele>1178.91</ele>
        <time>2020-11-27T13:04:09.025Z</time>
      </trkpt>
      <trkpt lat="47.08204" lon="6.7435">
        <ele>1178.94</ele>
        <time>2020-11-27T13:04:18.095Z</time>
      </trkpt>
      <trkpt lat="47.08213" lon="6.74348">
        <ele>1179.07</ele>
        <time>2020-11-27T13:04:26.853Z</time>
      </trkpt>
      <trkpt lat="47.08224" lon="6.74346">
        <ele>1178.95</ele>
        <time>2020-11-27T13:04:30.414Z</time>
      </trkpt>
      <trkpt lat="47.08222" lon="6.7429">
        <ele>1175</ele>
        <time>2020-11-27T13:04:38.139Z</time>
      </trkpt>
      <trkpt lat="47.08218" lon="6.74232">
        <ele>1171.91</ele>
        <time>2020-11-27T13:04:46.169Z</time>
      </trkpt>
      <trkpt lat="47.08215" lon="6.74177">
        <ele>1169.57</ele>
        <time>2020-11-27T13:04:53.372Z</time>
      </trkpt>
      <trkpt lat="47.08215" lon="6.74176">
        <ele>1169.57</ele>
        <time>2020-11-27T13:04:53.941Z</time>
      </trkpt>
      <trkpt lat="47.08213" lon="6.74143">
        <ele>1167.23</ele>
        <time>2020-11-27T13:04:58.505Z</time>
      </trkpt>
      <trkpt lat="47.08212" lon="6.74118">
        <ele>1165.48</ele>
        <time>2020-11-27T13:05:01.955Z</time>
      </trkpt>
      <trkpt lat="47.08212" lon="6.74106">
        <ele>1164.35</ele>
        <time>2020-11-27T13:05:03.608Z</time>
      </trkpt>
      <trkpt lat="47.08213" lon="6.74095">
        <ele>1163.16</ele>
        <time>2020-11-27T13:05:05.136Z</time>
      </trkpt>
      <trkpt lat="47.08218" lon="6.7408">
        <ele>1162.08</ele>
        <time>2020-11-27T13:05:07.437Z</time>
      </trkpt>
      <trkpt lat="47.08225" lon="6.7406">
        <ele>1160.83</ele>
        <time>2020-11-27T13:05:10.535Z</time>
      </trkpt>
      <trkpt lat="47.08234" lon="6.74041">
        <ele>1159.7</ele>
        <time>2020-11-27T13:05:13.723Z</time>
      </trkpt>
      <trkpt lat="47.08267" lon="6.73967">
        <ele>1154.59</ele>
        <time>2020-11-27T13:05:25.908Z</time>
      </trkpt>
      <trkpt lat="47.08288" lon="6.73916">
        <ele>1153.33</ele>
        <time>2020-11-27T13:05:36.211Z</time>
      </trkpt>
      <trkpt lat="47.08291" lon="6.73921">
        <ele>1153.1</ele>
        <time>2020-11-27T13:05:37.167Z</time>
      </trkpt>
      <trkpt lat="47.08311" lon="6.73925">
        <ele>1152.32</ele>
        <time>2020-11-27T13:05:41.917Z</time>
      </trkpt>
      <trkpt lat="47.08319" lon="6.73925">
        <ele>1152.32</ele>
        <time>2020-11-27T13:05:48.607Z</time>
      </trkpt>
      <trkpt lat="47.08324" lon="6.73922">
        <ele>1152.15</ele>
        <time>2020-11-27T13:05:49.972Z</time>
      </trkpt>
      <trkpt lat="47.08329" lon="6.73918">
        <ele>1151.98</ele>
        <time>2020-11-27T13:05:51.435Z</time>
      </trkpt>
      <trkpt lat="47.08342" lon="6.73905">
        <ele>1151.07</ele>
        <time>2020-11-27T13:05:54.559Z</time>
      </trkpt>
      <trkpt lat="47.08348" lon="6.73902">
        <ele>1150.52</ele>
        <time>2020-11-27T13:05:55.841Z</time>
      </trkpt>
      <trkpt lat="47.08355" lon="6.73902">
        <ele>1150.02</ele>
        <time>2020-11-27T13:05:57.257Z</time>
      </trkpt>
      <trkpt lat="47.0837" lon="6.73902">
        <ele>1148.9</ele>
        <time>2020-11-27T13:06:00.291Z</time>
      </trkpt>
      <trkpt lat="47.08382" lon="6.73905">
        <ele>1147.77</ele>
        <time>2020-11-27T13:06:02.754Z</time>
      </trkpt>
      <trkpt lat="47.08388" lon="6.73908">
        <ele>1147.33</ele>
        <time>2020-11-27T13:06:04.036Z</time>
      </trkpt>
      <trkpt lat="47.08395" lon="6.73913">
        <ele>1146.58</ele>
        <time>2020-11-27T13:06:05.611Z</time>
      </trkpt>
      <trkpt lat="47.08411" lon="6.73925">
        <ele>1145.31</ele>
        <time>2020-11-27T13:06:09.245Z</time>
      </trkpt>
      <trkpt lat="47.08418" lon="6.73932">
        <ele>1144.68</ele>
        <time>2020-11-27T13:06:10.958Z</time>
      </trkpt>
      <trkpt lat="47.08433" lon="6.7395">
        <ele>1143.02</ele>
        <time>2020-11-27T13:06:14.877Z</time>
      </trkpt>
      <trkpt lat="47.08452" lon="6.73982">
        <ele>1141.53</ele>
        <time>2020-11-27T13:06:20.928Z</time>
      </trkpt>
      <trkpt lat="47.08463" lon="6.74001">
        <ele>1139.17</ele>
        <time>2020-11-27T13:06:24.364Z</time>
      </trkpt>
      <trkpt lat="47.08467" lon="6.74007">
        <ele>1139.17</ele>
        <time>2020-11-27T13:06:29.145Z</time>
      </trkpt>
      <trkpt lat="47.08467" lon="6.74006">
        <ele>1139.17</ele>
        <time>2020-11-27T13:06:29.714Z</time>
      </trkpt>
      <trkpt lat="47.08474" lon="6.74018">
        <ele>1139.17</ele>
        <time>2020-11-27T13:06:38.712Z</time>
      </trkpt>
      <trkpt lat="47.08483" lon="6.74029">
        <ele>1138.37</ele>
        <time>2020-11-27T13:06:41.081Z</time>
      </trkpt>
      <trkpt lat="47.08505" lon="6.74054">
        <ele>1133.97</ele>
        <time>2020-11-27T13:06:46.708Z</time>
      </trkpt>
      <trkpt lat="47.08524" lon="6.74079">
        <ele>1133.17</ele>
        <time>2020-11-27T13:06:53.163Z</time>
      </trkpt>
      <trkpt lat="47.08538" lon="6.74095">
        <ele>1132.13</ele>
        <time>2020-11-27T13:06:56.664Z</time>
      </trkpt>
      <trkpt lat="47.0854" lon="6.74106">
        <ele>1132.6</ele>
        <time>2020-11-27T13:07:08.848Z</time>
      </trkpt>
      <trkpt lat="47.08542" lon="6.74113">
        <ele>1133.06</ele>
        <time>2020-11-27T13:07:19.000Z</time>
      </trkpt>
      <trkpt lat="47.08552" lon="6.7415">
        <ele>1135.98</ele>
        <time>2020-11-27T13:08:22.745Z</time>
      </trkpt>
      <trkpt lat="47.08557" lon="6.74168">
        <ele>1137.53</ele>
        <time>2020-11-27T13:08:57.285Z</time>
      </trkpt>
      <trkpt lat="47.08567" lon="6.74207">
        <ele>1139.41</ele>
        <time>2020-11-27T13:09:43.723Z</time>
      </trkpt>
      <trkpt lat="47.08567" lon="6.74206">
        <ele>1139.41</ele>
        <time>2020-11-27T13:09:44.292Z</time>
      </trkpt>
      <trkpt lat="47.0857" lon="6.74216">
        <ele>1141.3</ele>
        <time>2020-11-27T13:10:08.292Z</time>
      </trkpt>
      <trkpt lat="47.08583" lon="6.74268">
        <ele>1145.34</ele>
        <time>2020-11-27T13:11:36.423Z</time>
      </trkpt>
      <trkpt lat="47.08591" lon="6.74297">
        <ele>1147.68</ele>
        <time>2020-11-27T13:12:27.664Z</time>
      </trkpt>
      <trkpt lat="47.086" lon="6.74323">
        <ele>1149.69</ele>
        <time>2020-11-27T13:13:11.367Z</time>
      </trkpt>
      <trkpt lat="47.08617" lon="6.74386">
        <ele>1154.5</ele>
        <time>2020-11-27T13:14:56.039Z</time>
      </trkpt>
      <trkpt lat="47.08621" lon="6.74402">
        <ele>1155.93</ele>
        <time>2020-11-27T13:15:28.657Z</time>
      </trkpt>
      <trkpt lat="47.08626" lon="6.74429">
        <ele>1157.77</ele>
        <time>2020-11-27T13:16:08.751Z</time>
      </trkpt>
      <trkpt lat="47.08634" lon="6.74483">
        <ele>1161.84</ele>
        <time>2020-11-27T13:17:37.652Z</time>
      </trkpt>
      <trkpt lat="47.08642" lon="6.74553">
        <ele>1167.66</ele>
        <time>2020-11-27T13:19:48.866Z</time>
      </trkpt>
      <trkpt lat="47.08649" lon="6.74585">
        <ele>1169.53</ele>
        <time>2020-11-27T13:20:31.107Z</time>
      </trkpt>
      <trkpt lat="47.08655" lon="6.7461">
        <ele>1171.43</ele>
        <time>2020-11-27T13:21:12.482Z</time>
      </trkpt>
      <trkpt lat="47.08663" lon="6.74652">
        <ele>1174.54</ele>
        <time>2020-11-27T13:22:20.180Z</time>
      </trkpt>
      <trkpt lat="47.08666" lon="6.74671">
        <ele>1175.8</ele>
        <time>2020-11-27T13:22:47.687Z</time>
      </trkpt>
      <trkpt lat="47.08669" lon="6.74686">
        <ele>1176.33</ele>
        <time>2020-11-27T13:23:03.230Z</time>
      </trkpt>
      <trkpt lat="47.0867" lon="6.74694">
        <ele>1176.86</ele>
        <time>2020-11-27T13:23:14.790Z</time>
      </trkpt>
      <trkpt lat="47.08669" lon="6.74701">
        <ele>1177.02</ele>
        <time>2020-11-27T13:23:20.615Z</time>
      </trkpt>
      <trkpt lat="47.08667" lon="6.74706">
        <ele>1177.1</ele>
        <time>2020-11-27T13:23:24.670Z</time>
      </trkpt>
      <trkpt lat="47.08664" lon="6.74709">
        <ele>1177.1</ele>
        <time>2020-11-27T13:23:27.705Z</time>
      </trkpt>
      <trkpt lat="47.0866" lon="6.74712">
        <ele>1177.1</ele>
        <time>2020-11-27T13:23:31.461Z</time>
      </trkpt>
      <trkpt lat="47.08645" lon="6.74711">
        <ele>1177.03</ele>
        <time>2020-11-27T13:23:43.180Z</time>
      </trkpt>
      <trkpt lat="47.08628" lon="6.74708">
        <ele>1176.63</ele>
        <time>2020-11-27T13:23:47.904Z</time>
      </trkpt>
      <trkpt lat="47.08627" lon="6.74708">
        <ele>1176.63</ele>
        <time>2020-11-27T13:23:48.740Z</time>
      </trkpt>
      <trkpt lat="47.08624" lon="6.74708">
        <ele>1176.22</ele>
        <time>2020-11-27T13:23:49.347Z</time>
      </trkpt>
      <trkpt lat="47.08607" lon="6.74707">
        <ele>1175.72</ele>
        <time>2020-11-27T13:23:53.742Z</time>
      </trkpt>
      <trkpt lat="47.08594" lon="6.74708">
        <ele>1175.46</ele>
        <time>2020-11-27T13:23:57.476Z</time>
      </trkpt>
      <trkpt lat="47.08579" lon="6.74711">
        <ele>1174.75</ele>
        <time>2020-11-27T13:24:00.776Z</time>
      </trkpt>
      <trkpt lat="47.08571" lon="6.74714">
        <ele>1174.37</ele>
        <time>2020-11-27T13:24:02.590Z</time>
      </trkpt>
      <trkpt lat="47.08564" lon="6.74719">
        <ele>1174.12</ele>
        <time>2020-11-27T13:24:04.544Z</time>
      </trkpt>
      <trkpt lat="47.08559" lon="6.74725">
        <ele>1173.99</ele>
        <time>2020-11-27T13:24:06.393Z</time>
      </trkpt>
      <trkpt lat="47.08555" lon="6.74733">
        <ele>1173.57</ele>
        <time>2020-11-27T13:24:07.690Z</time>
      </trkpt>
      <trkpt lat="47.08553" lon="6.74743">
        <ele>1173.47</ele>
        <time>2020-11-27T13:24:09.876Z</time>
      </trkpt>
      <trkpt lat="47.08553" lon="6.74754">
        <ele>1173.13</ele>
        <time>2020-11-27T13:24:11.531Z</time>
      </trkpt>
      <trkpt lat="47.08554" lon="6.74766">
        <ele>1172.73</ele>
        <time>2020-11-27T13:24:13.299Z</time>
      </trkpt>
      <trkpt lat="47.0856" lon="6.74792">
        <ele>1172.18</ele>
        <time>2020-11-27T13:24:18.125Z</time>
      </trkpt>
      <trkpt lat="47.08561" lon="6.74803">
        <ele>1172.22</ele>
        <time>2020-11-27T13:24:24.766Z</time>
      </trkpt>
      <trkpt lat="47.08561" lon="6.74811">
        <ele>1172.37</ele>
        <time>2020-11-27T13:24:30.858Z</time>
      </trkpt>
      <trkpt lat="47.0856" lon="6.74817">
        <ele>1172.43</ele>
        <time>2020-11-27T13:24:34.904Z</time>
      </trkpt>
      <trkpt lat="47.08556" lon="6.74824">
        <ele>1172.76</ele>
        <time>2020-11-27T13:24:44.187Z</time>
      </trkpt>
      <trkpt lat="47.08551" lon="6.74829">
        <ele>1173.13</ele>
        <time>2020-11-27T13:24:53.731Z</time>
      </trkpt>
      <trkpt lat="47.08545" lon="6.74833">
        <ele>1173.31</ele>
        <time>2020-11-27T13:25:01.080Z</time>
      </trkpt>
      <trkpt lat="47.0853" lon="6.74834">
        <ele>1173.92</ele>
        <time>2020-11-27T13:25:21.078Z</time>
      </trkpt>
      <trkpt lat="47.08525" lon="6.74837">
        <ele>1174</ele>
        <time>2020-11-27T13:25:26.304Z</time>
      </trkpt>
      <trkpt lat="47.0852" lon="6.74842">
        <ele>1174.25</ele>
        <time>2020-11-27T13:25:34.444Z</time>
      </trkpt>
      <trkpt lat="47.08517" lon="6.74849">
        <ele>1174.64</ele>
        <time>2020-11-27T13:25:43.867Z</time>
      </trkpt>
      <trkpt lat="47.08516" lon="6.74858">
        <ele>1174.88</ele>
        <time>2020-11-27T13:25:51.906Z</time>
      </trkpt>
      <trkpt lat="47.08517" lon="6.74868">
        <ele>1175.15</ele>
        <time>2020-11-27T13:26:00.889Z</time>
      </trkpt>
      <trkpt lat="47.0852" lon="6.74875">
        <ele>1175.25</ele>
        <time>2020-11-27T13:26:06.514Z</time>
      </trkpt>
      <trkpt lat="47.08524" lon="6.74881">
        <ele>1175.36</ele>
        <time>2020-11-27T13:26:12.318Z</time>
      </trkpt>
      <trkpt lat="47.08529" lon="6.74886">
        <ele>1175.75</ele>
        <time>2020-11-27T13:26:22.090Z</time>
      </trkpt>
      <trkpt lat="47.08541" lon="6.74895">
        <ele>1176.02</ele>
        <time>2020-11-27T13:26:35.891Z</time>
      </trkpt>
      <trkpt lat="47.08547" lon="6.74897">
        <ele>1176.28</ele>
        <time>2020-11-27T13:26:44.285Z</time>
      </trkpt>
      <trkpt lat="47.08559" lon="6.74895">
        <ele>1176.74</ele>
        <time>2020-11-27T13:26:59.796Z</time>
      </trkpt>
      <trkpt lat="47.08566" lon="6.74893">
        <ele>1176.79</ele>
        <time>2020-11-27T13:27:06.169Z</time>
      </trkpt>
      <trkpt lat="47.0857" lon="6.74894">
        <ele>1177.08</ele>
        <time>2020-11-27T13:27:13.073Z</time>
      </trkpt>
      <trkpt lat="47.08575" lon="6.74897">
        <ele>1177.13</ele>
        <time>2020-11-27T13:27:18.008Z</time>
      </trkpt>
      <trkpt lat="47.0858" lon="6.74904">
        <ele>1177.18</ele>
        <time>2020-11-27T13:27:24.195Z</time>
      </trkpt>
      <trkpt lat="47.0859" lon="6.7492">
        <ele>1177.35</ele>
        <time>2020-11-27T13:27:38.017Z</time>
      </trkpt>
      <trkpt lat="47.08607" lon="6.74953">
        <ele>1177.84</ele>
        <time>2020-11-27T13:28:06.044Z</time>
      </trkpt>
      <trkpt lat="47.08609" lon="6.74956">
        <ele>1177.9</ele>
        <time>2020-11-27T13:28:09.004Z</time>
      </trkpt>
      <trkpt lat="47.08608" lon="6.74956">
        <ele>1177.9</ele>
        <time>2020-11-27T13:28:09.840Z</time>
      </trkpt>
      <trkpt lat="47.0862" lon="6.74974">
        <ele>1177.96</ele>
        <time>2020-11-27T13:28:24.659Z</time>
      </trkpt>
      <trkpt lat="47.08626" lon="6.74984">
        <ele>1178.04</ele>
        <time>2020-11-27T13:28:32.914Z</time>
      </trkpt>
      <trkpt lat="47.08636" lon="6.74995">
        <ele>1178.61</ele>
        <time>2020-11-27T13:28:50.674Z</time>
      </trkpt>
      <trkpt lat="47.08645" lon="6.75006">
        <ele>1178.89</ele>
        <time>2020-11-27T13:29:03.212Z</time>
      </trkpt>
      <trkpt lat="47.08651" lon="6.75016">
        <ele>1179.41</ele>
        <time>2020-11-27T13:29:17.149Z</time>
      </trkpt>
      <trkpt lat="47.08659" lon="6.75029">
        <ele>1180.16</ele>
        <time>2020-11-27T13:29:36.200Z</time>
      </trkpt>
      <trkpt lat="47.08674" lon="6.75059">
        <ele>1181.68</ele>
        <time>2020-11-27T13:30:15.849Z</time>
      </trkpt>
      <trkpt lat="47.08677" lon="6.75062">
        <ele>1181.9</ele>
        <time>2020-11-27T13:30:21.553Z</time>
      </trkpt>
      <trkpt lat="47.08683" lon="6.75065">
        <ele>1182.44</ele>
        <time>2020-11-27T13:30:33.599Z</time>
      </trkpt>
      <trkpt lat="47.0869" lon="6.75067">
        <ele>1183.12</ele>
        <time>2020-11-27T13:30:48.435Z</time>
      </trkpt>
      <trkpt lat="47.08698" lon="6.75065">
        <ele>1183.78</ele>
        <time>2020-11-27T13:31:03.366Z</time>
      </trkpt>
      <trkpt lat="47.08712" lon="6.75062">
        <ele>1185.11</ele>
        <time>2020-11-27T13:31:32.436Z</time>
      </trkpt>
      <trkpt lat="47.08725" lon="6.7506">
        <ele>1186.63</ele>
        <time>2020-11-27T13:32:06.223Z</time>
      </trkpt>
      <trkpt lat="47.0873" lon="6.75058">
        <ele>1186.63</ele>
        <time>2020-11-27T13:32:10.557Z</time>
      </trkpt>
      <trkpt lat="47.08737" lon="6.75052">
        <ele>1187.83</ele>
        <time>2020-11-27T13:32:36.700Z</time>
      </trkpt>
      <trkpt lat="47.08741" lon="6.75047">
        <ele>1188.23</ele>
        <time>2020-11-27T13:32:45.968Z</time>
      </trkpt>
      <trkpt lat="47.08743" lon="6.75041">
        <ele>1188.63</ele>
        <time>2020-11-27T13:32:54.820Z</time>
      </trkpt>
      <trkpt lat="47.08744" lon="6.75028">
        <ele>1189.81</ele>
        <time>2020-11-27T13:33:23.157Z</time>
      </trkpt>
      <trkpt lat="47.08746" lon="6.7502">
        <ele>1190.12</ele>
        <time>2020-11-27T13:33:31.836Z</time>
      </trkpt>
      <trkpt lat="47.08746" lon="6.7502">
        <ele>1190.12</ele>
        <time>2020-11-27T13:33:31.836Z</time>
      </trkpt>
      <trkpt lat="47.08746" lon="6.75018">
        <ele>1190.44</ele>
        <time>2020-11-27T13:33:36.229Z</time>
      </trkpt>
      <trkpt lat="47.08748" lon="6.75013">
        <ele>1190.77</ele>
        <time>2020-11-27T13:33:43.631Z</time>
      </trkpt>
      <trkpt lat="47.08751" lon="6.75009">
        <ele>1191.12</ele>
        <time>2020-11-27T13:33:51.410Z</time>
      </trkpt>
      <trkpt lat="47.08755" lon="6.75007">
        <ele>1191.69</ele>
        <time>2020-11-27T13:34:05.039Z</time>
      </trkpt>
      <trkpt lat="47.0876" lon="6.75006">
        <ele>1192.15</ele>
        <time>2020-11-27T13:34:15.142Z</time>
      </trkpt>
      <trkpt lat="47.08786" lon="6.75009">
        <ele>1194.84</ele>
        <time>2020-11-27T13:35:13.650Z</time>
      </trkpt>
      <trkpt lat="47.08797" lon="6.75009">
        <ele>1196.13</ele>
        <time>2020-11-27T13:35:42.413Z</time>
      </trkpt>
      <trkpt lat="47.08804" lon="6.75008">
        <ele>1196.74</ele>
        <time>2020-11-27T13:35:55.956Z</time>
      </trkpt>
      <trkpt lat="47.08821" lon="6.74995">
        <ele>1198.86</ele>
        <time>2020-11-27T13:36:42.443Z</time>
      </trkpt>
      <trkpt lat="47.08825" lon="6.74993">
        <ele>1199.15</ele>
        <time>2020-11-27T13:36:49.481Z</time>
      </trkpt>
      <trkpt lat="47.08829" lon="6.74993">
        <ele>1199.62</ele>
        <time>2020-11-27T13:36:59.968Z</time>
      </trkpt>
      <trkpt lat="47.08841" lon="6.74996">
        <ele>1201.12</ele>
        <time>2020-11-27T13:37:34.184Z</time>
      </trkpt>
      <trkpt lat="47.08847" lon="6.75">
        <ele>1201.69</ele>
        <time>2020-11-27T13:37:46.848Z</time>
      </trkpt>
      <trkpt lat="47.08854" lon="6.75005">
        <ele>1202.79</ele>
        <time>2020-11-27T13:38:11.955Z</time>
      </trkpt>
      <trkpt lat="47.08858" lon="6.75012">
        <ele>1203.42</ele>
        <time>2020-11-27T13:38:25.653Z</time>
      </trkpt>
      <trkpt lat="47.08862" lon="6.7502">
        <ele>1204.13</ele>
        <time>2020-11-27T13:38:41.112Z</time>
      </trkpt>
      <trkpt lat="47.0887" lon="6.75043">
        <ele>1206.3</ele>
        <time>2020-11-27T13:39:30.649Z</time>
      </trkpt>
      <trkpt lat="47.08877" lon="6.7506">
        <ele>1207.69</ele>
        <time>2020-11-27T13:40:00.878Z</time>
      </trkpt>
      <trkpt lat="47.08884" lon="6.75076">
        <ele>1208.81</ele>
        <time>2020-11-27T13:40:25.763Z</time>
      </trkpt>
      <trkpt lat="47.08889" lon="6.75083">
        <ele>1209.29</ele>
        <time>2020-11-27T13:40:37.342Z</time>
      </trkpt>
      <trkpt lat="47.08902" lon="6.75098">
        <ele>1211.07</ele>
        <time>2020-11-27T13:41:16.198Z</time>
      </trkpt>
      <trkpt lat="47.08906" lon="6.75104">
        <ele>1211.66</ele>
        <time>2020-11-27T13:41:29.030Z</time>
      </trkpt>
      <trkpt lat="47.0891" lon="6.75112">
        <ele>1212.18</ele>
        <time>2020-11-27T13:41:41.031Z</time>
      </trkpt>
      <trkpt lat="47.08912" lon="6.7512">
        <ele>1212.78</ele>
        <time>2020-11-27T13:41:54.082Z</time>
      </trkpt>
      <trkpt lat="47.08913" lon="6.75124">
        <ele>1213.08</ele>
        <time>2020-11-27T13:42:00.608Z</time>
      </trkpt>
      <trkpt lat="47.08913" lon="6.75123">
        <ele>1213.08</ele>
        <time>2020-11-27T13:42:01.177Z</time>
      </trkpt>
      <trkpt lat="47.08914" lon="6.75129">
        <ele>1213.38</ele>
        <time>2020-11-27T13:42:08.326Z</time>
      </trkpt>
      <trkpt lat="47.08916" lon="6.75142">
        <ele>1214.47</ele>
        <time>2020-11-27T13:42:32.872Z</time>
      </trkpt>
      <trkpt lat="47.08916" lon="6.75164">
        <ele>1215.16</ele>
        <time>2020-11-27T13:42:54.224Z</time>
      </trkpt>
      <trkpt lat="47.08926" lon="6.75151">
        <ele>1213.82</ele>
        <time>2020-11-27T13:42:56.926Z</time>
      </trkpt>
      <trkpt lat="47.0894" lon="6.7514">
        <ele>1211.31</ele>
        <time>2020-11-27T13:43:00.138Z</time>
      </trkpt>
      <trkpt lat="47.0897" lon="6.75133">
        <ele>1206.96</ele>
        <time>2020-11-27T13:43:06.283Z</time>
      </trkpt>
      <trkpt lat="47.0897" lon="6.75133">
        <ele>1206.96</ele>
        <time>2020-11-27T13:43:06.283Z</time>
      </trkpt>
      <trkpt lat="47.0894" lon="6.7514">
        <ele>1211.31</ele>
        <time>2020-11-27T13:44:44.262Z</time>
      </trkpt>
      <trkpt lat="47.08926" lon="6.75151">
        <ele>1213.82</ele>
        <time>2020-11-27T13:45:35.475Z</time>
      </trkpt>
      <trkpt lat="47.08916" lon="6.75164">
        <ele>1215.16</ele>
        <time>2020-11-27T13:46:04.614Z</time>
      </trkpt>
      <trkpt lat="47.08915" lon="6.75171">
        <ele>1215.14</ele>
        <time>2020-11-27T13:46:08.445Z</time>
      </trkpt>
      <trkpt lat="47.08913" lon="6.75177">
        <ele>1215.3</ele>
        <time>2020-11-27T13:46:14.057Z</time>
      </trkpt>
      <trkpt lat="47.0891" lon="6.75184">
        <ele>1215.47</ele>
        <time>2020-11-27T13:46:20.566Z</time>
      </trkpt>
      <trkpt lat="47.08907" lon="6.75189">
        <ele>1215.68</ele>
        <time>2020-11-27T13:46:27.043Z</time>
      </trkpt>
      <trkpt lat="47.08893" lon="6.75203">
        <ele>1216.17</ele>
        <time>2020-11-27T13:46:46.313Z</time>
      </trkpt>
      <trkpt lat="47.08893" lon="6.75203">
        <ele>1216.17</ele>
        <time>2020-11-27T13:46:46.313Z</time>
      </trkpt>
      <trkpt lat="47.08887" lon="6.75209">
        <ele>1216.65</ele>
        <time>2020-11-27T13:46:58.181Z</time>
      </trkpt>
      <trkpt lat="47.08879" lon="6.75222">
        <ele>1216.96</ele>
        <time>2020-11-27T13:47:11.275Z</time>
      </trkpt>
      <trkpt lat="47.0887" lon="6.75239">
        <ele>1217.3</ele>
        <time>2020-11-27T13:47:26.842Z</time>
      </trkpt>
      <trkpt lat="47.08863" lon="6.75256">
        <ele>1217.57</ele>
        <time>2020-11-27T13:47:40.685Z</time>
      </trkpt>
      <trkpt lat="47.08859" lon="6.75267">
        <ele>1217.95</ele>
        <time>2020-11-27T13:47:52.688Z</time>
      </trkpt>
      <trkpt lat="47.08854" lon="6.75276">
        <ele>1218.06</ele>
        <time>2020-11-27T13:48:00.267Z</time>
      </trkpt>
      <trkpt lat="47.08849" lon="6.75282">
        <ele>1218.2</ele>
        <time>2020-11-27T13:48:07.005Z</time>
      </trkpt>
      <trkpt lat="47.08845" lon="6.75285">
        <ele>1218.53</ele>
        <time>2020-11-27T13:48:14.766Z</time>
      </trkpt>
      <trkpt lat="47.0884" lon="6.75286">
        <ele>1218.55</ele>
        <time>2020-11-27T13:48:19.145Z</time>
      </trkpt>
      <trkpt lat="47.08835" lon="6.75286">
        <ele>1218.87</ele>
        <time>2020-11-27T13:48:27.194Z</time>
      </trkpt>
      <trkpt lat="47.0883" lon="6.75284">
        <ele>1219.1</ele>
        <time>2020-11-27T13:48:34.497Z</time>
      </trkpt>
      <trkpt lat="47.08823" lon="6.75278">
        <ele>1219.41</ele>
        <time>2020-11-27T13:48:44.929Z</time>
      </trkpt>
      <trkpt lat="47.08812" lon="6.75269">
        <ele>1219.81</ele>
        <time>2020-11-27T13:48:59.781Z</time>
      </trkpt>
      <trkpt lat="47.08805" lon="6.75264">
        <ele>1220.05</ele>
        <time>2020-11-27T13:49:08.852Z</time>
      </trkpt>
      <trkpt lat="47.08797" lon="6.75261">
        <ele>1220.25</ele>
        <time>2020-11-27T13:49:17.725Z</time>
      </trkpt>
      <trkpt lat="47.08789" lon="6.75258">
        <ele>1220.38</ele>
        <time>2020-11-27T13:49:25.793Z</time>
      </trkpt>
      <trkpt lat="47.0878" lon="6.75258">
        <ele>1220.41</ele>
        <time>2020-11-27T13:49:33.557Z</time>
      </trkpt>
      <trkpt lat="47.08774" lon="6.75259">
        <ele>1220.4</ele>
        <time>2020-11-27T13:49:38.482Z</time>
      </trkpt>
      <trkpt lat="47.0877" lon="6.75264">
        <ele>1220.4</ele>
        <time>2020-11-27T13:49:42.874Z</time>
      </trkpt>
      <trkpt lat="47.08766" lon="6.7527">
        <ele>1220.8</ele>
        <time>2020-11-27T13:49:52.492Z</time>
      </trkpt>
      <trkpt lat="47.08761" lon="6.75291">
        <ele>1221.13</ele>
        <time>2020-11-27T13:50:08.317Z</time>
      </trkpt>
      <trkpt lat="47.08759" lon="6.75298">
        <ele>1221.26</ele>
        <time>2020-11-27T13:50:13.933Z</time>
      </trkpt>
      <trkpt lat="47.08755" lon="6.75304">
        <ele>1221.41</ele>
        <time>2020-11-27T13:50:20.227Z</time>
      </trkpt>
      <trkpt lat="47.08748" lon="6.75312">
        <ele>1221.51</ele>
        <time>2020-11-27T13:50:28.499Z</time>
      </trkpt>
      <trkpt lat="47.08743" lon="6.7532">
        <ele>1221.9</ele>
        <time>2020-11-27T13:50:39.508Z</time>
      </trkpt>
      <trkpt lat="47.08738" lon="6.7533">
        <ele>1221.96</ele>
        <time>2020-11-27T13:50:47.064Z</time>
      </trkpt>
      <trkpt lat="47.08738" lon="6.75331">
        <ele>1222.07</ele>
        <time>2020-11-27T13:50:49.260Z</time>
      </trkpt>
      <trkpt lat="47.08738" lon="6.75331">
        <ele>1222.07</ele>
        <time>2020-11-27T13:50:49.260Z</time>
      </trkpt>
      <trkpt lat="47.08734" lon="6.75338">
        <ele>1222.17</ele>
        <time>2020-11-27T13:50:55.362Z</time>
      </trkpt>
      <trkpt lat="47.08729" lon="6.75344">
        <ele>1222.22</ele>
        <time>2020-11-27T13:51:01.174Z</time>
      </trkpt>
      <trkpt lat="47.08722" lon="6.7535">
        <ele>1222.37</ele>
        <time>2020-11-27T13:51:09.335Z</time>
      </trkpt>
      <trkpt lat="47.08715" lon="6.75354">
        <ele>1222.56</ele>
        <time>2020-11-27T13:51:17.510Z</time>
      </trkpt>
      <trkpt lat="47.08707" lon="6.75356">
        <ele>1222.67</ele>
        <time>2020-11-27T13:51:25.259Z</time>
      </trkpt>
      <trkpt lat="47.08699" lon="6.75356">
        <ele>1222.89</ele>
        <time>2020-11-27T13:51:34.201Z</time>
      </trkpt>
      <trkpt lat="47.08691" lon="6.75354">
        <ele>1223</ele>
        <time>2020-11-27T13:51:41.949Z</time>
      </trkpt>
      <trkpt lat="47.0868" lon="6.75349">
        <ele>1223.27</ele>
        <time>2020-11-27T13:51:54.213Z</time>
      </trkpt>
      <trkpt lat="47.08658" lon="6.75336">
        <ele>1223.77</ele>
        <time>2020-11-27T13:52:18.790Z</time>
      </trkpt>
      <trkpt lat="47.08645" lon="6.7533">
        <ele>1224.18</ele>
        <time>2020-11-27T13:52:34.521Z</time>
      </trkpt>
      <trkpt lat="47.0863" lon="6.75324">
        <ele>1224.75</ele>
        <time>2020-11-27T13:52:54.095Z</time>
      </trkpt>
      <trkpt lat="47.08617" lon="6.75319">
        <ele>1224.98</ele>
        <time>2020-11-27T13:53:07.422Z</time>
      </trkpt>
      <trkpt lat="47.08603" lon="6.75315">
        <ele>1225.38</ele>
        <time>2020-11-27T13:53:23.473Z</time>
      </trkpt>
      <trkpt lat="47.08589" lon="6.75309">
        <ele>1225.57</ele>
        <time>2020-11-27T13:53:37.321Z</time>
      </trkpt>
      <trkpt lat="47.08581" lon="6.75307">
        <ele>1225.87</ele>
        <time>2020-11-27T13:53:47.582Z</time>
      </trkpt>
      <trkpt lat="47.08573" lon="6.75306">
        <ele>1226.17</ele>
        <time>2020-11-27T13:53:57.790Z</time>
      </trkpt>
      <trkpt lat="47.08563" lon="6.75307">
        <ele>1226.42</ele>
        <time>2020-11-27T13:54:08.653Z</time>
      </trkpt>
      <trkpt lat="47.08554" lon="6.75309">
        <ele>1226.59</ele>
        <time>2020-11-27T13:54:17.836Z</time>
      </trkpt>
      <trkpt lat="47.08546" lon="6.75312">
        <ele>1226.86</ele>
        <time>2020-11-27T13:54:27.693Z</time>
      </trkpt>
      <trkpt lat="47.08541" lon="6.75316">
        <ele>1226.99</ele>
        <time>2020-11-27T13:54:33.714Z</time>
      </trkpt>
      <trkpt lat="47.08536" lon="6.75322">
        <ele>1227.35</ele>
        <time>2020-11-27T13:54:43.525Z</time>
      </trkpt>
      <trkpt lat="47.08533" lon="6.75331">
        <ele>1227.63</ele>
        <time>2020-11-27T13:54:52.668Z</time>
      </trkpt>
      <trkpt lat="47.08531" lon="6.75341">
        <ele>1227.8</ele>
        <time>2020-11-27T13:55:00.270Z</time>
      </trkpt>
      <trkpt lat="47.08529" lon="6.75375">
        <ele>1228.26</ele>
        <time>2020-11-27T13:55:24.006Z</time>
      </trkpt>
      <trkpt lat="47.08527" lon="6.75389">
        <ele>1228.53</ele>
        <time>2020-11-27T13:55:34.924Z</time>
      </trkpt>
      <trkpt lat="47.08525" lon="6.75401">
        <ele>1228.51</ele>
        <time>2020-11-27T13:55:41.711Z</time>
      </trkpt>
      <trkpt lat="47.08521" lon="6.75412">
        <ele>1228.69</ele>
        <time>2020-11-27T13:55:50.523Z</time>
      </trkpt>
      <trkpt lat="47.08514" lon="6.75431">
        <ele>1229.1</ele>
        <time>2020-11-27T13:56:07.041Z</time>
      </trkpt>
      <trkpt lat="47.08504" lon="6.75453">
        <ele>1229.25</ele>
        <time>2020-11-27T13:56:23.347Z</time>
      </trkpt>
      <trkpt lat="47.08496" lon="6.75467">
        <ele>1229.48</ele>
        <time>2020-11-27T13:56:35.875Z</time>
      </trkpt>
      <trkpt lat="47.0849" lon="6.75477">
        <ele>1229.65</ele>
        <time>2020-11-27T13:56:45.036Z</time>
      </trkpt>
      <trkpt lat="47.08484" lon="6.75483">
        <ele>1229.79</ele>
        <time>2020-11-27T13:56:52.409Z</time>
      </trkpt>
      <trkpt lat="47.08481" lon="6.75486">
        <ele>1229.86</ele>
        <time>2020-11-27T13:56:56.095Z</time>
      </trkpt>
      <trkpt lat="47.08481" lon="6.75486">
        <ele>1229.86</ele>
        <time>2020-11-27T13:56:56.095Z</time>
      </trkpt>
      <trkpt lat="47.08478" lon="6.75488">
        <ele>1229.94</ele>
        <time>2020-11-27T13:56:59.638Z</time>
      </trkpt>
      <trkpt lat="47.08472" lon="6.7549">
        <ele>1230.11</ele>
        <time>2020-11-27T13:57:06.527Z</time>
      </trkpt>
      <trkpt lat="47.08465" lon="6.7549">
        <ele>1230.4</ele>
        <time>2020-11-27T13:57:15.960Z</time>
      </trkpt>
      <trkpt lat="47.08447" lon="6.75488">
        <ele>1230.75</ele>
        <time>2020-11-27T13:57:34.316Z</time>
      </trkpt>
      <trkpt lat="47.08445" lon="6.75486">
        <ele>1230.83</ele>
        <time>2020-11-27T13:57:37.218Z</time>
      </trkpt>
      <trkpt lat="47.08416" lon="6.75471">
        <ele>1231.45</ele>
        <time>2020-11-27T13:58:08.755Z</time>
      </trkpt>
      <trkpt lat="47.08405" lon="6.75467">
        <ele>1231.4</ele>
        <time>2020-11-27T13:58:17.631Z</time>
      </trkpt>
      <trkpt lat="47.08394" lon="6.75463">
        <ele>1231.65</ele>
        <time>2020-11-27T13:58:29.507Z</time>
      </trkpt>
      <trkpt lat="47.0838" lon="6.75459">
        <ele>1232.12</ele>
        <time>2020-11-27T13:58:46.591Z</time>
      </trkpt>
      <trkpt lat="47.08379" lon="6.75459">
        <ele>1232.12</ele>
        <time>2020-11-27T13:58:47.427Z</time>
      </trkpt>
      <trkpt lat="47.08321" lon="6.75446">
        <ele>1232.59</ele>
        <time>2020-11-27T13:59:40.377Z</time>
      </trkpt>
      <trkpt lat="47.08303" lon="6.75441">
        <ele>1232.78</ele>
        <time>2020-11-27T13:59:57.304Z</time>
      </trkpt>
      <trkpt lat="47.08281" lon="6.75436">
        <ele>1232.09</ele>
        <time>2020-11-27T14:00:02.959Z</time>
      </trkpt>
      <trkpt lat="47.08259" lon="6.75432">
        <ele>1230.49</ele>
        <time>2020-11-27T14:00:07.443Z</time>
      </trkpt>
      <trkpt lat="47.08247" lon="6.75431">
        <ele>1229.74</ele>
        <time>2020-11-27T14:00:09.745Z</time>
      </trkpt>
      <trkpt lat="47.08236" lon="6.75433">
        <ele>1228.51</ele>
        <time>2020-11-27T14:00:11.987Z</time>
      </trkpt>
      <trkpt lat="47.08245" lon="6.75421">
        <ele>1229.99</ele>
        <time>2020-11-27T14:00:45.532Z</time>
      </trkpt>
      <trkpt lat="47.08251" lon="6.75414">
        <ele>1230.82</ele>
        <time>2020-11-27T14:01:03.666Z</time>
      </trkpt>
      <trkpt lat="47.0829" lon="6.75382">
        <ele>1231.26</ele>
        <time>2020-11-27T14:01:44.729Z</time>
      </trkpt>
      <trkpt lat="47.0829" lon="6.75382">
        <ele>1231.26</ele>
        <time>2020-11-27T14:01:44.729Z</time>
      </trkpt>
      <trkpt lat="47.08291" lon="6.75381">
        <ele>1231.7</ele>
        <time>2020-11-27T14:01:48.632Z</time>
      </trkpt>
      <trkpt lat="47.08303" lon="6.7537">
        <ele>1230.46</ele>
        <time>2020-11-27T14:01:51.493Z</time>
      </trkpt>
      <trkpt lat="47.0831" lon="6.75362">
        <ele>1229.76</ele>
        <time>2020-11-27T14:01:53.288Z</time>
      </trkpt>
      <trkpt lat="47.08316" lon="6.75354">
        <ele>1228.96</ele>
        <time>2020-11-27T14:01:54.927Z</time>
      </trkpt>
      <trkpt lat="47.08321" lon="6.75342">
        <ele>1228.06</ele>
        <time>2020-11-27T14:01:56.865Z</time>
      </trkpt>
      <trkpt lat="47.08323" lon="6.75329">
        <ele>1227.31</ele>
        <time>2020-11-27T14:01:58.701Z</time>
      </trkpt>
      <trkpt lat="47.08322" lon="6.75316">
        <ele>1226.57</ele>
        <time>2020-11-27T14:02:00.503Z</time>
      </trkpt>
      <trkpt lat="47.0832" lon="6.75304">
        <ele>1226.01</ele>
        <time>2020-11-27T14:02:02.063Z</time>
      </trkpt>
      <trkpt lat="47.08315" lon="6.75285">
        <ele>1224.95</ele>
        <time>2020-11-27T14:02:04.869Z</time>
      </trkpt>
      <trkpt lat="47.08312" lon="6.75275">
        <ele>1224.23</ele>
        <time>2020-11-27T14:02:06.374Z</time>
      </trkpt>
      <trkpt lat="47.08311" lon="6.75265">
        <ele>1223.42</ele>
        <time>2020-11-27T14:02:07.766Z</time>
      </trkpt>
      <trkpt lat="47.08311" lon="6.75254">
        <ele>1223.11</ele>
        <time>2020-11-27T14:02:09.484Z</time>
      </trkpt>
      <trkpt lat="47.08311" lon="6.75244">
        <ele>1222.59</ele>
        <time>2020-11-27T14:02:10.861Z</time>
      </trkpt>
      <trkpt lat="47.08316" lon="6.75196">
        <ele>1221.94</ele>
        <time>2020-11-27T14:02:20.381Z</time>
      </trkpt>
      <trkpt lat="47.08316" lon="6.75196">
        <ele>1221.94</ele>
        <time>2020-11-27T14:02:20.381Z</time>
      </trkpt>
      <trkpt lat="47.08319" lon="6.75165">
        <ele>1221.29</ele>
        <time>2020-11-27T14:02:25.825Z</time>
      </trkpt>
      <trkpt lat="47.08323" lon="6.75141">
        <ele>1220.6</ele>
        <time>2020-11-27T14:02:29.696Z</time>
      </trkpt>
      <trkpt lat="47.08324" lon="6.75132">
        <ele>1220.34</ele>
        <time>2020-11-27T14:02:31.113Z</time>
      </trkpt>
      <trkpt lat="47.08323" lon="6.75124">
        <ele>1220.02</ele>
        <time>2020-11-27T14:02:32.213Z</time>
      </trkpt>
      <trkpt lat="47.08313" lon="6.751">
        <ele>1218.71</ele>
        <time>2020-11-27T14:02:36.089Z</time>
      </trkpt>
      <trkpt lat="47.08311" lon="6.75091">
        <ele>1218.4</ele>
        <time>2020-11-27T14:02:37.480Z</time>
      </trkpt>
      <trkpt lat="47.08311" lon="6.75084">
        <ele>1218.08</ele>
        <time>2020-11-27T14:02:38.444Z</time>
      </trkpt>
      <trkpt lat="47.08314" lon="6.75071">
        <ele>1217.61</ele>
        <time>2020-11-27T14:02:40.422Z</time>
      </trkpt>
      <trkpt lat="47.08324" lon="6.7504">
        <ele>1216.63</ele>
        <time>2020-11-27T14:02:45.748Z</time>
      </trkpt>
      <trkpt lat="47.08327" lon="6.75028">
        <ele>1216.15</ele>
        <time>2020-11-27T14:02:47.515Z</time>
      </trkpt>
      <trkpt lat="47.08329" lon="6.75017">
        <ele>1215.55</ele>
        <time>2020-11-27T14:02:49.084Z</time>
      </trkpt>
      <trkpt lat="47.0833" lon="6.75006">
        <ele>1215</ele>
        <time>2020-11-27T14:02:50.613Z</time>
      </trkpt>
      <trkpt lat="47.0833" lon="6.74968">
        <ele>1212.66</ele>
        <time>2020-11-27T14:02:55.847Z</time>
      </trkpt>
      <trkpt lat="47.0833" lon="6.74909">
        <ele>1209.94</ele>
        <time>2020-11-27T14:03:03.974Z</time>
      </trkpt>
      <trkpt lat="47.08331" lon="6.74834">
        <ele>1206.33</ele>
        <time>2020-11-27T14:03:14.307Z</time>
      </trkpt>
      <trkpt lat="47.08331" lon="6.74823">
        <ele>1206.07</ele>
        <time>2020-11-27T14:03:16.139Z</time>
      </trkpt>
      <trkpt lat="47.0833" lon="6.74812">
        <ele>1205.82</ele>
        <time>2020-11-27T14:03:18.018Z</time>
      </trkpt>
      <trkpt lat="47.08328" lon="6.74803">
        <ele>1205.58</ele>
        <time>2020-11-27T14:03:19.556Z</time>
      </trkpt>
      <trkpt lat="47.08321" lon="6.74778">
        <ele>1205.19</ele>
        <time>2020-11-27T14:03:24.761Z</time>
      </trkpt>
      <trkpt lat="47.08304" lon="6.74716">
        <ele>1203.48</ele>
        <time>2020-11-27T14:03:35.582Z</time>
      </trkpt>
      <trkpt lat="47.08304" lon="6.74715">
        <ele>1203.48</ele>
        <time>2020-11-27T14:03:36.151Z</time>
      </trkpt>
      <trkpt lat="47.08298" lon="6.74693">
        <ele>1201.78</ele>
        <time>2020-11-27T14:03:39.416Z</time>
      </trkpt>
      <trkpt lat="47.08283" lon="6.74631">
        <ele>1197.52</ele>
        <time>2020-11-27T14:03:48.479Z</time>
      </trkpt>
      <trkpt lat="47.08278" lon="6.74612">
        <ele>1196.42</ele>
        <time>2020-11-27T14:03:51.285Z</time>
      </trkpt>
      <trkpt lat="47.08262" lon="6.74558">
        <ele>1193.35</ele>
        <time>2020-11-27T14:03:59.397Z</time>
      </trkpt>
      <trkpt lat="47.08248" lon="6.74512">
        <ele>1190.17</ele>
        <time>2020-11-27T14:04:06.338Z</time>
      </trkpt>
      <trkpt lat="47.08236" lon="6.74476">
        <ele>1188.36</ele>
        <time>2020-11-27T14:04:11.410Z</time>
      </trkpt>
      <trkpt lat="47.08233" lon="6.74463">
        <ele>1187.71</ele>
        <time>2020-11-27T14:04:13.300Z</time>
      </trkpt>
      <trkpt lat="47.08231" lon="6.74452">
        <ele>1186.91</ele>
        <time>2020-11-27T14:04:14.869Z</time>
      </trkpt>
      <trkpt lat="47.0823" lon="6.74436">
        <ele>1185.72</ele>
        <time>2020-11-27T14:04:17.082Z</time>
      </trkpt>
      <trkpt lat="47.08226" lon="6.74372">
        <ele>1180.79</ele>
        <time>2020-11-27T14:04:25.935Z</time>
      </trkpt>
      <trkpt lat="47.08224" lon="6.74346">
        <ele>1178.95</ele>
        <time>2020-11-27T14:04:29.540Z</time>
      </trkpt>
      <trkpt lat="47.08213" lon="6.74348">
        <ele>1179.07</ele>
        <time>2020-11-27T14:04:39.829Z</time>
      </trkpt>
      <trkpt lat="47.08204" lon="6.7435">
        <ele>1178.94</ele>
        <time>2020-11-27T14:04:42.627Z</time>
      </trkpt>
      <trkpt lat="47.08194" lon="6.74355">
        <ele>1178.91</ele>
        <time>2020-11-27T14:04:51.092Z</time>
      </trkpt>
      <trkpt lat="47.08189" lon="6.74359">
        <ele>1178.88</ele>
        <time>2020-11-27T14:04:55.498Z</time>
      </trkpt>
      <trkpt lat="47.08189" lon="6.74359">
        <ele>1178.88</ele>
        <time>2020-11-27T14:04:55.498Z</time>
      </trkpt>
      <trkpt lat="47.08184" lon="6.74364">
        <ele>1178.85</ele>
        <time>2020-11-27T14:05:00.199Z</time>
      </trkpt>
      <trkpt lat="47.08173" lon="6.74375">
        <ele>1178.74</ele>
        <time>2020-11-27T14:05:04.625Z</time>
      </trkpt>
      <trkpt lat="47.08156" lon="6.74392">
        <ele>1178.6</ele>
        <time>2020-11-27T14:05:20.199Z</time>
      </trkpt>
      <trkpt lat="47.08147" lon="6.744">
        <ele>1178.32</ele>
        <time>2020-11-27T14:05:22.999Z</time>
      </trkpt>
      <trkpt lat="47.08141" lon="6.74403">
        <ele>1178.5</ele>
        <time>2020-11-27T14:05:30.163Z</time>
      </trkpt>
      <trkpt lat="47.08137" lon="6.74404">
        <ele>1178.49</ele>
        <time>2020-11-27T14:05:33.433Z</time>
      </trkpt>
      <trkpt lat="47.08132" lon="6.74403">
        <ele>1178.65</ele>
        <time>2020-11-27T14:05:39.380Z</time>
      </trkpt>
      <trkpt lat="47.08106" lon="6.7439">
        <ele>1179.57</ele>
        <time>2020-11-27T14:06:12.514Z</time>
      </trkpt>
      <trkpt lat="47.08095" lon="6.74383">
        <ele>1179.42</ele>
        <time>2020-11-27T14:06:16.283Z</time>
      </trkpt>
      <trkpt lat="47.08087" lon="6.74377">
        <ele>1179.2</ele>
        <time>2020-11-27T14:06:18.730Z</time>
      </trkpt>
      <trkpt lat="47.08081" lon="6.74368">
        <ele>1178.97</ele>
        <time>2020-11-27T14:06:21.007Z</time>
      </trkpt>
      <trkpt lat="47.08072" lon="6.74352">
        <ele>1178.49</ele>
        <time>2020-11-27T14:06:24.489Z</time>
      </trkpt>
      <trkpt lat="47.08056" lon="6.74328">
        <ele>1177.19</ele>
        <time>2020-11-27T14:06:29.069Z</time>
      </trkpt>
      <trkpt lat="47.08051" lon="6.74322">
        <ele>1176.86</ele>
        <time>2020-11-27T14:06:30.425Z</time>
      </trkpt>
      <trkpt lat="47.08045" lon="6.74317">
        <ele>1176.68</ele>
        <time>2020-11-27T14:06:32.272Z</time>
      </trkpt>
      <trkpt lat="47.08039" lon="6.74313">
        <ele>1176.1</ele>
        <time>2020-11-27T14:06:33.605Z</time>
      </trkpt>
      <trkpt lat="47.08018" lon="6.74305">
        <ele>1175.24</ele>
        <time>2020-11-27T14:06:38.661Z</time>
      </trkpt>
      <trkpt lat="47.08006" lon="6.74297">
        <ele>1175.89</ele>
        <time>2020-11-27T14:06:57.846Z</time>
      </trkpt>
      <trkpt lat="47.07998" lon="6.74291">
        <ele>1176.33</ele>
        <time>2020-11-27T14:07:10.894Z</time>
      </trkpt>
      <trkpt lat="47.07985" lon="6.74279">
        <ele>1176.13</ele>
        <time>2020-11-27T14:07:15.690Z</time>
      </trkpt>
      <trkpt lat="47.0796" lon="6.74251">
        <ele>1175.47</ele>
        <time>2020-11-27T14:07:24.602Z</time>
      </trkpt>
      <trkpt lat="47.07938" lon="6.74227">
        <ele>1174.63</ele>
        <time>2020-11-27T14:07:31.588Z</time>
      </trkpt>
      <trkpt lat="47.0793" lon="6.74219">
        <ele>1174.42</ele>
        <time>2020-11-27T14:07:34.309Z</time>
      </trkpt>
      <trkpt lat="47.07919" lon="6.74211">
        <ele>1174.06</ele>
        <time>2020-11-27T14:07:37.482Z</time>
      </trkpt>
      <trkpt lat="47.07913" lon="6.74207">
        <ele>1173.93</ele>
        <time>2020-11-27T14:07:39.378Z</time>
      </trkpt>
      <trkpt lat="47.07909" lon="6.74205">
        <ele>1173.82</ele>
        <time>2020-11-27T14:07:40.509Z</time>
      </trkpt>
      <trkpt lat="47.07898" lon="6.74202">
        <ele>1173.44</ele>
        <time>2020-11-27T14:07:43.266Z</time>
      </trkpt>
      <trkpt lat="47.07891" lon="6.74199">
        <ele>1173.14</ele>
        <time>2020-11-27T14:07:44.941Z</time>
      </trkpt>
      <trkpt lat="47.07884" lon="6.74194">
        <ele>1172.78</ele>
        <time>2020-11-27T14:07:46.648Z</time>
      </trkpt>
      <trkpt lat="47.07874" lon="6.74186">
        <ele>1172.2</ele>
        <time>2020-11-27T14:07:49.044Z</time>
      </trkpt>
      <trkpt lat="47.07864" lon="6.74177">
        <ele>1171.69</ele>
        <time>2020-11-27T14:07:51.681Z</time>
      </trkpt>
      <trkpt lat="47.07859" lon="6.7417">
        <ele>1171.33</ele>
        <time>2020-11-27T14:07:53.120Z</time>
      </trkpt>
      <trkpt lat="47.07849" lon="6.74152">
        <ele>1170.09</ele>
        <time>2020-11-27T14:07:56.321Z</time>
      </trkpt>
      <trkpt lat="47.07844" lon="6.74146">
        <ele>1169.93</ele>
        <time>2020-11-27T14:07:58.074Z</time>
      </trkpt>
      <trkpt lat="47.07839" lon="6.74142">
        <ele>1169.86</ele>
        <time>2020-11-27T14:07:59.869Z</time>
      </trkpt>
      <trkpt lat="47.07824" lon="6.74134">
        <ele>1169.51</ele>
        <time>2020-11-27T14:08:04.344Z</time>
      </trkpt>
      <trkpt lat="47.07804" lon="6.74127">
        <ele>1168.43</ele>
        <time>2020-11-27T14:08:08.611Z</time>
      </trkpt>
      <trkpt lat="47.0779" lon="6.74121">
        <ele>1167.56</ele>
        <time>2020-11-27T14:08:11.466Z</time>
      </trkpt>
      <trkpt lat="47.07773" lon="6.74113">
        <ele>1166.71</ele>
        <time>2020-11-27T14:08:15.332Z</time>
      </trkpt>
      <trkpt lat="47.07773" lon="6.74113">
        <ele>1166.71</ele>
        <time>2020-11-27T14:08:15.332Z</time>
      </trkpt>
      <trkpt lat="47.07767" lon="6.7411">
        <ele>1165.87</ele>
        <time>2020-11-27T14:08:16.615Z</time>
      </trkpt>
      <trkpt lat="47.07749" lon="6.74097">
        <ele>1164.44</ele>
        <time>2020-11-27T14:08:20.672Z</time>
      </trkpt>
      <trkpt lat="47.07724" lon="6.74078">
        <ele>1162.4</ele>
        <time>2020-11-27T14:08:26.367Z</time>
      </trkpt>
      <trkpt lat="47.07707" lon="6.74067">
        <ele>1161.41</ele>
        <time>2020-11-27T14:08:30.198Z</time>
      </trkpt>
      <trkpt lat="47.07697" lon="6.74057">
        <ele>1161.34</ele>
        <time>2020-11-27T14:08:39.492Z</time>
      </trkpt>
      <trkpt lat="47.07687" lon="6.74044">
        <ele>1161.46</ele>
        <time>2020-11-27T14:08:51.662Z</time>
      </trkpt>
      <trkpt lat="47.07684" lon="6.7404">
        <ele>1161.53</ele>
        <time>2020-11-27T14:08:55.688Z</time>
      </trkpt>
      <trkpt lat="47.0767" lon="6.74024">
        <ele>1162.01</ele>
        <time>2020-11-27T14:09:15.412Z</time>
      </trkpt>
      <trkpt lat="47.07661" lon="6.74013">
        <ele>1161.78</ele>
        <time>2020-11-27T14:09:18.784Z</time>
      </trkpt>
      <trkpt lat="47.07651" lon="6.74002">
        <ele>1160.94</ele>
        <time>2020-11-27T14:09:21.311Z</time>
      </trkpt>
      <trkpt lat="47.07647" lon="6.74">
        <ele>1160.75</ele>
        <time>2020-11-27T14:09:22.249Z</time>
      </trkpt>
      <trkpt lat="47.07643" lon="6.73999">
        <ele>1160.46</ele>
        <time>2020-11-27T14:09:23.069Z</time>
      </trkpt>
      <trkpt lat="47.07635" lon="6.74">
        <ele>1159.92</ele>
        <time>2020-11-27T14:09:24.694Z</time>
      </trkpt>
      <trkpt lat="47.07627" lon="6.74">
        <ele>1159.57</ele>
        <time>2020-11-27T14:09:26.488Z</time>
      </trkpt>
      <trkpt lat="47.07585" lon="6.73996">
        <ele>1156.26</ele>
        <time>2020-11-27T14:09:35.002Z</time>
      </trkpt>
      <trkpt lat="47.07563" lon="6.73995">
        <ele>1154.84</ele>
        <time>2020-11-27T14:09:39.149Z</time>
      </trkpt>
      <trkpt lat="47.07555" lon="6.73993">
        <ele>1154.45</ele>
        <time>2020-11-27T14:09:40.900Z</time>
      </trkpt>
      <trkpt lat="47.07547" lon="6.73988">
        <ele>1154.15</ele>
        <time>2020-11-27T14:09:43.030Z</time>
      </trkpt>
      <trkpt lat="47.07538" lon="6.73981">
        <ele>1153.62</ele>
        <time>2020-11-27T14:09:45.153Z</time>
      </trkpt>
      <trkpt lat="47.07532" lon="6.73973">
        <ele>1152.77</ele>
        <time>2020-11-27T14:09:46.793Z</time>
      </trkpt>
      <trkpt lat="47.07526" lon="6.73961">
        <ele>1151.94</ele>
        <time>2020-11-27T14:09:48.844Z</time>
      </trkpt>
      <trkpt lat="47.07516" lon="6.73941">
        <ele>1151.38</ele>
        <time>2020-11-27T14:09:53.042Z</time>
      </trkpt>
      <trkpt lat="47.07511" lon="6.73931">
        <ele>1151.47</ele>
        <time>2020-11-27T14:10:00.871Z</time>
      </trkpt>
      <trkpt lat="47.07507" lon="6.73923">
        <ele>1151.55</ele>
        <time>2020-11-27T14:10:07.211Z</time>
      </trkpt>
      <trkpt lat="47.07497" lon="6.73902">
        <ele>1151.1</ele>
        <time>2020-11-27T14:10:11.897Z</time>
      </trkpt>
      <trkpt lat="47.07492" lon="6.73896">
        <ele>1150.8</ele>
        <time>2020-11-27T14:10:13.310Z</time>
      </trkpt>
      <trkpt lat="47.07487" lon="6.73893">
        <ele>1150.75</ele>
        <time>2020-11-27T14:10:15.082Z</time>
      </trkpt>
      <trkpt lat="47.07484" lon="6.73897">
        <ele>1150.01</ele>
        <time>2020-11-27T14:10:15.902Z</time>
      </trkpt>
      <trkpt lat="47.0748" lon="6.73903">
        <ele>1149.59</ele>
        <time>2020-11-27T14:10:17.059Z</time>
      </trkpt>
      <trkpt lat="47.07478" lon="6.7391">
        <ele>1149.06</ele>
        <time>2020-11-27T14:10:18.104Z</time>
      </trkpt>
      <trkpt lat="47.07478" lon="6.73917">
        <ele>1148.52</ele>
        <time>2020-11-27T14:10:19.069Z</time>
      </trkpt>
      <trkpt lat="47.07479" lon="6.7393">
        <ele>1147.23</ele>
        <time>2020-11-27T14:10:20.871Z</time>
      </trkpt>
      <trkpt lat="47.0748" lon="6.73938">
        <ele>1146.51</ele>
        <time>2020-11-27T14:10:21.992Z</time>
      </trkpt>
      <trkpt lat="47.07479" lon="6.73945">
        <ele>1145.91</ele>
        <time>2020-11-27T14:10:22.977Z</time>
      </trkpt>
      <trkpt lat="47.07476" lon="6.73955">
        <ele>1145.16</ele>
        <time>2020-11-27T14:10:24.483Z</time>
      </trkpt>
      <trkpt lat="47.07473" lon="6.73962">
        <ele>1144.86</ele>
        <time>2020-11-27T14:10:25.645Z</time>
      </trkpt>
      <trkpt lat="47.07468" lon="6.73972">
        <ele>1144.48</ele>
        <time>2020-11-27T14:10:27.518Z</time>
      </trkpt>
      <trkpt lat="47.07463" lon="6.73978">
        <ele>1144.41</ele>
        <time>2020-11-27T14:10:29.593Z</time>
      </trkpt>
      <trkpt lat="47.07457" lon="6.73984">
        <ele>1144.48</ele>
        <time>2020-11-27T14:10:36.252Z</time>
      </trkpt>
      <trkpt lat="47.0745" lon="6.73989">
        <ele>1144.77</ele>
        <time>2020-11-27T14:10:46.133Z</time>
      </trkpt>
      <trkpt lat="47.07435" lon="6.73997">
        <ele>1145.67</ele>
        <time>2020-11-27T14:11:10.489Z</time>
      </trkpt>
      <trkpt lat="47.07407" lon="6.74014">
        <ele>1149.96</ele>
        <time>2020-11-27T14:12:48.221Z</time>
      </trkpt>
      <trkpt lat="47.07402" lon="6.74018">
        <ele>1150.7</ele>
        <time>2020-11-27T14:13:05.709Z</time>
      </trkpt>
      <trkpt lat="47.07397" lon="6.74024">
        <ele>1151.17</ele>
        <time>2020-11-27T14:13:16.809Z</time>
      </trkpt>
      <trkpt lat="47.07393" lon="6.74033">
        <ele>1151.44</ele>
        <time>2020-11-27T14:13:26.053Z</time>
      </trkpt>
      <trkpt lat="47.0739" lon="6.74045">
        <ele>1151.84</ele>
        <time>2020-11-27T14:13:38.453Z</time>
      </trkpt>
      <trkpt lat="47.07379" lon="6.74104">
        <ele>1154.1</ele>
        <time>2020-11-27T14:14:41.115Z</time>
      </trkpt>
      <trkpt lat="47.07379" lon="6.74104">
        <ele>1154.1</ele>
        <time>2020-11-27T14:14:41.115Z</time>
      </trkpt>
      <trkpt lat="47.07376" lon="6.7412">
        <ele>1156.36</ele>
        <time>2020-11-27T14:15:17.571Z</time>
      </trkpt>
      <trkpt lat="47.07375" lon="6.74129">
        <ele>1156.67</ele>
        <time>2020-11-27T14:15:26.647Z</time>
      </trkpt>
      <trkpt lat="47.07374" lon="6.74139">
        <ele>1156.97</ele>
        <time>2020-11-27T14:15:36.228Z</time>
      </trkpt>
      <trkpt lat="47.07374" lon="6.7415">
        <ele>1157.4</ele>
        <time>2020-11-27T14:15:47.741Z</time>
      </trkpt>
      <trkpt lat="47.07376" lon="6.74161">
        <ele>1157.78</ele>
        <time>2020-11-27T14:15:59.006Z</time>
      </trkpt>
      <trkpt lat="47.07388" lon="6.74229">
        <ele>1160.57</ele>
        <time>2020-11-27T14:17:12.993Z</time>
      </trkpt>
      <trkpt lat="47.0739" lon="6.74243">
        <ele>1161.09</ele>
        <time>2020-11-27T14:17:27.561Z</time>
      </trkpt>
      <trkpt lat="47.0739" lon="6.74254">
        <ele>1161.53</ele>
        <time>2020-11-27T14:17:39.180Z</time>
      </trkpt>
      <trkpt lat="47.07389" lon="6.74287">
        <ele>1160.74</ele>
        <time>2020-11-27T14:17:44.659Z</time>
      </trkpt>
      <trkpt lat="47.07389" lon="6.74304">
        <ele>1160.6</ele>
        <time>2020-11-27T14:17:48.319Z</time>
      </trkpt>
      <trkpt lat="47.07391" lon="6.74316">
        <ele>1160.27</ele>
        <time>2020-11-27T14:17:50.288Z</time>
      </trkpt>
      <trkpt lat="47.07396" lon="6.74337">
        <ele>1159.54</ele>
        <time>2020-11-27T14:17:53.553Z</time>
      </trkpt>
      <trkpt lat="47.07397" lon="6.74346">
        <ele>1159.28</ele>
        <time>2020-11-27T14:17:54.970Z</time>
      </trkpt>
      <trkpt lat="47.07396" lon="6.74357">
        <ele>1159.3</ele>
        <time>2020-11-27T14:18:01.448Z</time>
      </trkpt>
      <trkpt lat="47.07392" lon="6.74368">
        <ele>1159.5</ele>
        <time>2020-11-27T14:18:10.503Z</time>
      </trkpt>
      <trkpt lat="47.07387" lon="6.74377">
        <ele>1159.78</ele>
        <time>2020-11-27T14:18:20.292Z</time>
      </trkpt>
      <trkpt lat="47.07378" lon="6.74387">
        <ele>1160.2</ele>
        <time>2020-11-27T14:18:34.611Z</time>
      </trkpt>
      <trkpt lat="47.0737" lon="6.74393">
        <ele>1160.73</ele>
        <time>2020-11-27T14:18:48.569Z</time>
      </trkpt>
      <trkpt lat="47.07361" lon="6.74398">
        <ele>1161.23</ele>
        <time>2020-11-27T14:19:02.823Z</time>
      </trkpt>
      <trkpt lat="47.07349" lon="6.74401">
        <ele>1161.48</ele>
        <time>2020-11-27T14:19:15.361Z</time>
      </trkpt>
      <trkpt lat="47.07337" lon="6.74402">
        <ele>1161.66</ele>
        <time>2020-11-27T14:19:27.010Z</time>
      </trkpt>
      <trkpt lat="47.07322" lon="6.74403">
        <ele>1162.03</ele>
        <time>2020-11-27T14:19:43.227Z</time>
      </trkpt>
      <trkpt lat="47.07305" lon="6.74401">
        <ele>1162</ele>
        <time>2020-11-27T14:19:57.115Z</time>
      </trkpt>
      <trkpt lat="47.07285" lon="6.74397">
        <ele>1162.03</ele>
        <time>2020-11-27T14:20:14.227Z</time>
      </trkpt>
      <trkpt lat="47.07275" lon="6.74394">
        <ele>1161.81</ele>
        <time>2020-11-27T14:20:17.102Z</time>
      </trkpt>
      <trkpt lat="47.0725" lon="6.74382">
        <ele>1160.39</ele>
        <time>2020-11-27T14:20:22.494Z</time>
      </trkpt>
      <trkpt lat="47.07243" lon="6.7438">
        <ele>1159.8</ele>
        <time>2020-11-27T14:20:23.937Z</time>
      </trkpt>
      <trkpt lat="47.07234" lon="6.74378">
        <ele>1158.98</ele>
        <time>2020-11-27T14:20:25.778Z</time>
      </trkpt>
      <trkpt lat="47.07226" lon="6.74377">
        <ele>1158.22</ele>
        <time>2020-11-27T14:20:27.402Z</time>
      </trkpt>
      <trkpt lat="47.07218" lon="6.74378">
        <ele>1157.39</ele>
        <time>2020-11-27T14:20:29.027Z</time>
      </trkpt>
      <trkpt lat="47.07212" lon="6.74382">
        <ele>1156.69</ele>
        <time>2020-11-27T14:20:30.360Z</time>
      </trkpt>
      <trkpt lat="47.07207" lon="6.74389">
        <ele>1156.06</ele>
        <time>2020-11-27T14:20:31.757Z</time>
      </trkpt>
      <trkpt lat="47.07204" lon="6.744">
        <ele>1155.47</ele>
        <time>2020-11-27T14:20:33.390Z</time>
      </trkpt>
      <trkpt lat="47.07201" lon="6.74414">
        <ele>1154.8</ele>
        <time>2020-11-27T14:20:35.412Z</time>
      </trkpt>
      <trkpt lat="47.07201" lon="6.74429">
        <ele>1153.92</ele>
        <time>2020-11-27T14:20:37.478Z</time>
      </trkpt>
      <trkpt lat="47.07205" lon="6.7448">
        <ele>1151.34</ele>
        <time>2020-11-27T14:20:44.552Z</time>
      </trkpt>
      <trkpt lat="47.07212" lon="6.74558">
        <ele>1143.95</ele>
        <time>2020-11-27T14:20:55.391Z</time>
      </trkpt>
      <trkpt lat="47.07215" lon="6.74587">
        <ele>1142.31</ele>
        <time>2020-11-27T14:20:59.433Z</time>
      </trkpt>
      <trkpt lat="47.07216" lon="6.74601">
        <ele>1141.65</ele>
        <time>2020-11-27T14:21:01.372Z</time>
      </trkpt>
      <trkpt lat="47.07216" lon="6.7461">
        <ele>1141.51</ele>
        <time>2020-11-27T14:21:03.073Z</time>
      </trkpt>
      <trkpt lat="47.07216" lon="6.7461">
        <ele>1141.51</ele>
        <time>2020-11-27T14:21:03.073Z</time>
      </trkpt>
      <trkpt lat="47.07216" lon="6.74612">
        <ele>1141.38</ele>
        <time>2020-11-27T14:21:03.349Z</time>
      </trkpt>
      <trkpt lat="47.07215" lon="6.74627">
        <ele>1140.88</ele>
        <time>2020-11-27T14:21:05.551Z</time>
      </trkpt>
      <trkpt lat="47.07215" lon="6.74645">
        <ele>1140.23</ele>
        <time>2020-11-27T14:21:08.085Z</time>
      </trkpt>
      <trkpt lat="47.07217" lon="6.7467">
        <ele>1139.6</ele>
        <time>2020-11-27T14:21:12.194Z</time>
      </trkpt>
      <trkpt lat="47.07221" lon="6.74695">
        <ele>1138.67</ele>
        <time>2020-11-27T14:21:15.804Z</time>
      </trkpt>
      <trkpt lat="47.0724" lon="6.74769">
        <ele>1135.76</ele>
        <time>2020-11-27T14:21:26.844Z</time>
      </trkpt>
      <trkpt lat="47.07244" lon="6.74793">
        <ele>1134.1</ele>
        <time>2020-11-27T14:21:30.248Z</time>
      </trkpt>
      <trkpt lat="47.07251" lon="6.74844">
        <ele>1130.72</ele>
        <time>2020-11-27T14:21:37.416Z</time>
      </trkpt>
      <trkpt lat="47.07253" lon="6.74868">
        <ele>1128.9</ele>
        <time>2020-11-27T14:21:40.747Z</time>
      </trkpt>
      <trkpt lat="47.07252" lon="6.74878">
        <ele>1128.3</ele>
        <time>2020-11-27T14:21:42.140Z</time>
      </trkpt>
      <trkpt lat="47.07249" lon="6.74889">
        <ele>1127.1</ele>
        <time>2020-11-27T14:21:43.772Z</time>
      </trkpt>
      <trkpt lat="47.0724" lon="6.74905">
        <ele>1125.9</ele>
        <time>2020-11-27T14:21:46.631Z</time>
      </trkpt>
      <trkpt lat="47.07226" lon="6.74924">
        <ele>1122.91</ele>
        <time>2020-11-27T14:21:50.488Z</time>
      </trkpt>
      <trkpt lat="47.07219" lon="6.74937">
        <ele>1122.31</ele>
        <time>2020-11-27T14:21:52.818Z</time>
      </trkpt>
      <trkpt lat="47.07213" lon="6.7495">
        <ele>1121.53</ele>
        <time>2020-11-27T14:21:54.982Z</time>
      </trkpt>
      <trkpt lat="47.07209" lon="6.74958">
        <ele>1121.03</ele>
        <time>2020-11-27T14:21:56.349Z</time>
      </trkpt>
      <trkpt lat="47.07203" lon="6.74968">
        <ele>1120.69</ele>
        <time>2020-11-27T14:21:58.510Z</time>
      </trkpt>
      <trkpt lat="47.07198" lon="6.74973">
        <ele>1120.62</ele>
        <time>2020-11-27T14:22:00.435Z</time>
      </trkpt>
      <trkpt lat="47.07188" lon="6.7498">
        <ele>1120.5</ele>
        <time>2020-11-27T14:22:03.994Z</time>
      </trkpt>
      <trkpt lat="47.07185" lon="6.74982">
        <ele>1120.26</ele>
        <time>2020-11-27T14:22:04.661Z</time>
      </trkpt>
      <trkpt lat="47.07177" lon="6.74989">
        <ele>1119.71</ele>
        <time>2020-11-27T14:22:06.492Z</time>
      </trkpt>
      <trkpt lat="47.07175" lon="6.74995">
        <ele>1119.11</ele>
        <time>2020-11-27T14:22:07.413Z</time>
      </trkpt>
      <trkpt lat="47.07175" lon="6.75003">
        <ele>1118.33</ele>
        <time>2020-11-27T14:22:08.515Z</time>
      </trkpt>
      <trkpt lat="47.07177" lon="6.7503">
        <ele>1116.48</ele>
        <time>2020-11-27T14:22:12.257Z</time>
      </trkpt>
      <trkpt lat="47.07181" lon="6.75057">
        <ele>1115.32</ele>
        <time>2020-11-27T14:22:15.883Z</time>
      </trkpt>
      <trkpt lat="47.07189" lon="6.751">
        <ele>1114.24</ele>
        <time>2020-11-27T14:22:23.244Z</time>
      </trkpt>
      <trkpt lat="47.0719" lon="6.7512">
        <ele>1113.44</ele>
        <time>2020-11-27T14:22:25.940Z</time>
      </trkpt>
      <trkpt lat="47.07192" lon="6.75135">
        <ele>1112.64</ele>
        <time>2020-11-27T14:22:28.046Z</time>
      </trkpt>
      <trkpt lat="47.07195" lon="6.75146">
        <ele>1112.1</ele>
        <time>2020-11-27T14:22:29.679Z</time>
      </trkpt>
      <trkpt lat="47.07201" lon="6.75162">
        <ele>1111.79</ele>
        <time>2020-11-27T14:22:33.051Z</time>
      </trkpt>
      <trkpt lat="47.07221" lon="6.75217">
        <ele>1110.44</ele>
        <time>2020-11-27T14:22:43.749Z</time>
      </trkpt>
      <trkpt lat="47.07226" lon="6.75237">
        <ele>1109.65</ele>
        <time>2020-11-27T14:22:46.712Z</time>
      </trkpt>
      <trkpt lat="47.07229" lon="6.7525">
        <ele>1109.04</ele>
        <time>2020-11-27T14:22:48.463Z</time>
      </trkpt>
      <trkpt lat="47.07229" lon="6.75263">
        <ele>1108.06</ele>
        <time>2020-11-27T14:22:50.254Z</time>
      </trkpt>
      <trkpt lat="47.07228" lon="6.75279">
        <ele>1106.93</ele>
        <time>2020-11-27T14:22:52.468Z</time>
      </trkpt>
      <trkpt lat="47.07226" lon="6.75289">
        <ele>1106.14</ele>
        <time>2020-11-27T14:22:53.904Z</time>
      </trkpt>
      <trkpt lat="47.07224" lon="6.75298">
        <ele>1105.4</ele>
        <time>2020-11-27T14:22:55.209Z</time>
      </trkpt>
      <trkpt lat="47.07221" lon="6.75307">
        <ele>1104.65</ele>
        <time>2020-11-27T14:22:56.589Z</time>
      </trkpt>
      <trkpt lat="47.07209" lon="6.7532">
        <ele>1103.69</ele>
        <time>2020-11-27T14:22:59.402Z</time>
      </trkpt>
      <trkpt lat="47.07182" lon="6.75349">
        <ele>1102.9</ele>
        <time>2020-11-27T14:23:08.604Z</time>
      </trkpt>
      <trkpt lat="47.07156" lon="6.75374">
        <ele>1102.81</ele>
        <time>2020-11-27T14:23:33.490Z</time>
      </trkpt>
      <trkpt lat="47.07139" lon="6.75389">
        <ele>1102.95</ele>
        <time>2020-11-27T14:23:51.222Z</time>
      </trkpt>
      <trkpt lat="47.07127" lon="6.75402">
        <ele>1103.78</ele>
        <time>2020-11-27T14:24:13.868Z</time>
      </trkpt>
      <trkpt lat="47.07122" lon="6.75404">
        <ele>1103.67</ele>
        <time>2020-11-27T14:24:15.333Z</time>
      </trkpt>
      <trkpt lat="47.07117" lon="6.75404">
        <ele>1103.45</ele>
        <time>2020-11-27T14:24:16.452Z</time>
      </trkpt>
      <trkpt lat="47.07112" lon="6.75401">
        <ele>1103.17</ele>
        <time>2020-11-27T14:24:17.579Z</time>
      </trkpt>
      <trkpt lat="47.07107" lon="6.75396">
        <ele>1102.94</ele>
        <time>2020-11-27T14:24:19.011Z</time>
      </trkpt>
      <trkpt lat="47.07048" lon="6.75336">
        <ele>1098.11</ele>
        <time>2020-11-27T14:24:33.530Z</time>
      </trkpt>
      <trkpt lat="47.07036" lon="6.75325">
        <ele>1097.23</ele>
        <time>2020-11-27T14:24:36.244Z</time>
      </trkpt>
      <trkpt lat="47.0703" lon="6.7532">
        <ele>1096.77</ele>
        <time>2020-11-27T14:24:37.522Z</time>
      </trkpt>
      <trkpt lat="47.07024" lon="6.75316">
        <ele>1096.28</ele>
        <time>2020-11-27T14:24:38.855Z</time>
      </trkpt>
      <trkpt lat="47.07018" lon="6.75314">
        <ele>1095.57</ele>
        <time>2020-11-27T14:24:40.100Z</time>
      </trkpt>
      <trkpt lat="47.07012" lon="6.75314">
        <ele>1095.12</ele>
        <time>2020-11-27T14:24:41.314Z</time>
      </trkpt>
      <trkpt lat="47.07005" lon="6.75316">
        <ele>1094.37</ele>
        <time>2020-11-27T14:24:42.756Z</time>
      </trkpt>
      <trkpt lat="47.06998" lon="6.75321">
        <ele>1093.63</ele>
        <time>2020-11-27T14:24:44.331Z</time>
      </trkpt>
      <trkpt lat="47.06992" lon="6.75328">
        <ele>1092.56</ele>
        <time>2020-11-27T14:24:45.881Z</time>
      </trkpt>
      <trkpt lat="47.06987" lon="6.75336">
        <ele>1091.54</ele>
        <time>2020-11-27T14:24:47.377Z</time>
      </trkpt>
      <trkpt lat="47.06984" lon="6.75346">
        <ele>1090.35</ele>
        <time>2020-11-27T14:24:48.883Z</time>
      </trkpt>
      <trkpt lat="47.06981" lon="6.75358">
        <ele>1089.35</ele>
        <time>2020-11-27T14:24:50.644Z</time>
      </trkpt>
      <trkpt lat="47.06979" lon="6.75371">
        <ele>1088.09</ele>
        <time>2020-11-27T14:24:52.480Z</time>
      </trkpt>
      <trkpt lat="47.06979" lon="6.75385">
        <ele>1086.57</ele>
        <time>2020-11-27T14:24:54.409Z</time>
      </trkpt>
      <trkpt lat="47.06978" lon="6.75407">
        <ele>1084.82</ele>
        <time>2020-11-27T14:24:57.447Z</time>
      </trkpt>
      <trkpt lat="47.06977" lon="6.75424">
        <ele>1084</ele>
        <time>2020-11-27T14:24:59.798Z</time>
      </trkpt>
      <trkpt lat="47.06976" lon="6.75436">
        <ele>1083.53</ele>
        <time>2020-11-27T14:25:01.444Z</time>
      </trkpt>
      <trkpt lat="47.06975" lon="6.75444">
        <ele>1083</ele>
        <time>2020-11-27T14:25:02.565Z</time>
      </trkpt>
      <trkpt lat="47.06972" lon="6.75451">
        <ele>1082.06</ele>
        <time>2020-11-27T14:25:03.704Z</time>
      </trkpt>
      <trkpt lat="47.06968" lon="6.75459">
        <ele>1081.57</ele>
        <time>2020-11-27T14:25:05.072Z</time>
      </trkpt>
      <trkpt lat="47.06961" lon="6.75471">
        <ele>1080.61</ele>
        <time>2020-11-27T14:25:07.249Z</time>
      </trkpt>
      <trkpt lat="47.0697" lon="6.75488">
        <ele>1080.31</ele>
        <time>2020-11-27T14:25:11.431Z</time>
      </trkpt>
      <trkpt lat="47.06977" lon="6.75495">
        <ele>1079.93</ele>
        <time>2020-11-27T14:25:13.312Z</time>
      </trkpt>
      <trkpt lat="47.06994" lon="6.75507">
        <ele>1078.95</ele>
        <time>2020-11-27T14:25:17.246Z</time>
      </trkpt>
      <trkpt lat="47.07" lon="6.75511">
        <ele>1078.95</ele>
        <time>2020-11-27T14:25:22.757Z</time>
      </trkpt>
      <trkpt lat="47.07005" lon="6.75516">
        <ele>1078.73</ele>
        <time>2020-11-27T14:25:24.212Z</time>
      </trkpt>
      <trkpt lat="47.07009" lon="6.75522">
        <ele>1078.72</ele>
        <time>2020-11-27T14:25:28.869Z</time>
      </trkpt>
      <trkpt lat="47.0702" lon="6.75539">
        <ele>1078.63</ele>
        <time>2020-11-27T14:25:41.163Z</time>
      </trkpt>
      <trkpt lat="47.07027" lon="6.7555">
        <ele>1078.77</ele>
        <time>2020-11-27T14:25:50.963Z</time>
      </trkpt>
      <trkpt lat="47.07041" lon="6.75575">
        <ele>1078.52</ele>
        <time>2020-11-27T14:25:57.999Z</time>
      </trkpt>
      <trkpt lat="47.07044" lon="6.75583">
        <ele>1078.39</ele>
        <time>2020-11-27T14:25:59.764Z</time>
      </trkpt>
      <trkpt lat="47.07053" lon="6.75601">
        <ele>1078.17</ele>
        <time>2020-11-27T14:26:04.428Z</time>
      </trkpt>
      <trkpt lat="47.07057" lon="6.75611">
        <ele>1078.09</ele>
        <time>2020-11-27T14:26:06.989Z</time>
      </trkpt>
      <trkpt lat="47.07057" lon="6.75616">
        <ele>1078</ele>
        <time>2020-11-27T14:26:07.897Z</time>
      </trkpt>
      <trkpt lat="47.07064" lon="6.75624">
        <ele>1078.2</ele>
        <time>2020-11-27T14:26:17.246Z</time>
      </trkpt>
      <trkpt lat="47.07068" lon="6.75629">
        <ele>1078.49</ele>
        <time>2020-11-27T14:26:25.199Z</time>
      </trkpt>
      <trkpt lat="47.07079" lon="6.75637">
        <ele>1079.06</ele>
        <time>2020-11-27T14:26:42.739Z</time>
      </trkpt>
      <trkpt lat="47.07086" lon="6.75644">
        <ele>1079.42</ele>
        <time>2020-11-27T14:26:54.337Z</time>
      </trkpt>
      <trkpt lat="47.07088" lon="6.75646">
        <ele>1079.53</ele>
        <time>2020-11-27T14:26:57.773Z</time>
      </trkpt>
    </trkseg>
  </trk>
</gpx>